Time,TemperatureF,DewpointF,PressureIn,WindDirection,WindDirectionDegrees,WindSpeedMPH,WindSpeedGustMPH,Humidity,HourlyPrecipIn,Conditions,Clouds,dailyrainin,SolarRadiationWatts/m^2,SoftwareType,DateUTC
2013-11-22 00:01:00,49.7,47.5,30.16,North,9,13.0,20.0,92,0.28,,---,0.48,0.00,VWS V14.01,2013-11-22 06:01:00,
2013-11-22 00:03:00,49.6,47.7,30.16,NNW,346,8.0,13.0,93,0.28,,---,0.00,0.00,VWS V14.01,2013-11-22 06:03:00,
2013-11-22 00:04:00,49.4,47.5,30.15,NNW,341,10.0,17.0,93,0.29,,---,0.01,0.00,VWS V14.01,2013-11-22 06:04:00,
2013-11-22 00:05:00,49.4,48.0,30.15,North,351,10.0,16.0,93,0.29,,,0.01,0,weatherlink.com 1.10,2013-11-22 06:05:00,
2013-11-22 00:09:00,49.1,47.2,30.15,North,349,5.0,20.0,93,0.29,,---,0.01,0.00,VWS V14.01,2013-11-22 06:09:00,
2013-11-22 00:10:00,49.1,47.2,30.15,NNW,339,10.0,20.0,93,0.29,,---,0.01,0.00,VWS V14.01,2013-11-22 06:10:00,
2013-11-22 00:11:00,49.0,47.1,30.15,NW,318,11.0,20.0,93,0.30,,---,0.02,0.00,VWS V14.01,2013-11-22 06:11:00,
2013-11-22 00:12:00,49.0,47.1,30.15,NNW,343,12.0,20.0,93,0.30,,---,0.02,0.00,VWS V14.01,2013-11-22 06:12:00,
2013-11-22 00:15:00,48.9,47.0,30.16,NW,312,8.0,21.0,93,0.30,,---,0.02,0.00,VWS V14.01,2013-11-22 06:15:00,
2013-11-22 00:16:00,48.8,46.9,30.16,NNW,342,14.0,22.0,93,0.30,,---,0.02,0.00,VWS V14.01,2013-11-22 06:16:00,
2013-11-22 00:17:00,48.7,46.8,30.16,NNW,339,8.0,22.0,93,0.30,,---,0.02,0.00,VWS V14.01,2013-11-22 06:17:00,
2013-11-22 00:18:00,48.6,46.4,30.15,NNW,339,9.0,22.0,92,0.30,,---,0.02,0.00,VWS V14.01,2013-11-22 06:18:00,
2013-11-22 00:20:00,48.6,46.4,30.14,NNW,348,15.0,22.0,92,0.30,,---,0.02,0.00,VWS V14.01,2013-11-22 06:20:00,
2013-11-22 00:21:00,48.6,46.4,30.14,North,353,9.0,22.0,92,0.30,,---,0.02,0.00,VWS V14.01,2013-11-22 06:21:00,
2013-11-22 00:22:00,48.5,46.3,30.14,North,356,12.0,22.0,92,0.30,,---,0.02,0.00,VWS V14.01,2013-11-22 06:22:00,
2013-11-22 00:23:00,48.4,46.0,30.14,NNW,340,5.0,20.0,92,0.30,,,0.02,0,weatherlink.com 1.10,2013-11-22 06:23:00,
2013-11-22 00:25:00,48.4,46.2,30.14,NNW,343,9.0,22.0,92,0.30,,---,0.02,0.00,VWS V14.01,2013-11-22 06:25:00,
2013-11-22 00:26:00,48.3,46.4,30.14,North,4,5.0,22.0,93,0.30,,---,0.02,0.00,VWS V14.01,2013-11-22 06:26:00,
2013-11-22 00:31:00,48.3,46.4,30.14,North,1,7.0,22.0,93,0.30,,---,0.02,0.00,VWS V14.01,2013-11-22 06:31:00,
2013-11-22 00:32:00,48.3,46.4,30.14,NNW,345,8.0,8.0,93,0.24,,---,0.02,0.00,VWS V14.01,2013-11-22 06:32:00,
2013-11-22 00:33:00,48.2,46.3,30.15,NW,322,10.0,11.0,93,0.24,,---,0.02,0.00,VWS V14.01,2013-11-22 06:33:00,
2013-11-22 00:36:00,48.1,46.2,30.15,NNW,327,6.0,12.0,93,0.24,,---,0.02,0.00,VWS V14.01,2013-11-22 06:36:00,
2013-11-22 00:37:00,48.1,46.2,30.15,NNW,343,9.0,19.0,93,0.24,,---,0.02,0.00,VWS V14.01,2013-11-22 06:37:00,
2013-11-22 00:38:00,47.9,46.0,30.15,NNW,339,9.0,19.0,93,0.24,,---,0.02,0.00,VWS V14.01,2013-11-22 06:38:00,
2013-11-22 00:39:00,47.8,45.6,30.15,NW,316,6.0,19.0,92,0.24,,---,0.02,0.00,VWS V14.01,2013-11-22 06:39:00,
2013-11-22 00:40:00,47.8,45.6,30.15,NNW,339,12.0,19.0,92,0.24,,---,0.02,0.00,VWS V14.01,2013-11-22 06:40:00,
2013-11-22 00:42:00,47.6,45.4,30.15,NNW,338,19.0,19.0,92,0.24,,---,0.02,0.00,VWS V14.01,2013-11-22 06:42:00,
2013-11-22 00:44:00,47.5,45.3,30.15,NNW,345,13.0,19.0,92,0.24,,---,0.02,0.00,VWS V14.01,2013-11-22 06:44:00,
2013-11-22 00:45:00,47.4,45.2,30.15,NNW,342,5.0,19.0,92,0.24,,---,0.02,0.00,VWS V14.01,2013-11-22 06:45:00,
2013-11-22 00:47:00,47.4,45.2,30.15,North,356,8.0,19.0,92,0.24,,---,0.02,0.00,VWS V14.01,2013-11-22 06:47:00,
2013-11-22 00:48:00,47.3,45.1,30.15,NNW,332,6.0,19.0,92,0.24,,---,0.02,0.00,VWS V14.01,2013-11-22 06:48:00,
2013-11-22 00:50:00,47.3,45.1,30.15,NNW,345,8.0,19.0,92,0.24,,---,0.02,0.00,VWS V14.01,2013-11-22 06:50:00,
2013-11-22 00:52:00,47.2,45.0,30.15,NNW,335,11.0,19.0,92,0.24,,---,0.02,0.00,VWS V14.01,2013-11-22 06:52:00,
2013-11-22 00:54:00,47.1,44.9,30.16,NW,326,11.0,19.0,92,0.24,,---,0.02,0.00,VWS V14.01,2013-11-22 06:54:00,
2013-11-22 00:56:00,47.1,44.9,30.16,North,352,4.0,19.0,92,0.24,,---,0.02,0.00,VWS V14.01,2013-11-22 06:56:00,
2013-11-22 00:57:00,47.1,44.9,30.16,NNW,332,8.0,19.0,92,0.24,,---,0.02,0.00,VWS V14.01,2013-11-22 06:57:00,
2013-11-22 00:58:00,47.1,45.0,30.16,NNW,344,5.0,19.0,92,0.02,,,0.02,0,weatherlink.com 1.10,2013-11-22 06:58:00,
2013-11-22 01:00:00,47.1,45.2,30.16,North,2,8.0,19.0,93,0.24,,---,0.02,0.00,VWS V14.01,2013-11-22 07:00:00,
2013-11-22 01:02:00,47.0,44.8,30.16,North,351,7.0,11.0,92,0.02,,---,0.02,0.00,VWS V14.01,2013-11-22 07:02:00,
2013-11-22 01:03:00,47.0,45.1,30.16,NNW,332,6.0,11.0,93,0.02,,---,0.02,0.00,VWS V14.01,2013-11-22 07:03:00,
2013-11-22 01:05:00,46.9,45.0,30.17,NW,308,14.0,15.0,93,0.02,,---,0.02,0.00,VWS V14.01,2013-11-22 07:05:00,
2013-11-22 01:07:00,46.7,44.5,30.18,North,351,15.0,17.0,92,0.02,,---,0.02,0.00,VWS V14.01,2013-11-22 07:07:00,
2013-11-22 01:08:00,46.6,44.4,30.17,NNW,330,9.0,17.0,92,0.02,,---,0.02,0.00,VWS V14.01,2013-11-22 07:08:00,
2013-11-22 01:10:00,46.6,44.4,30.17,NNW,346,15.0,17.0,92,0.02,,---,0.02,0.00,VWS V14.01,2013-11-22 07:10:00,
2013-11-22 01:11:00,46.5,44.3,30.17,North,357,10.0,17.0,92,0.02,,---,0.02,0.00,VWS V14.01,2013-11-22 07:11:00,
2013-11-22 01:13:00,46.4,44.2,30.16,NNW,346,6.0,17.0,92,0.02,,---,0.02,0.00,VWS V14.01,2013-11-22 07:13:00,
2013-11-22 01:14:00,46.4,44.2,30.16,NNW,341,10.0,17.0,92,0.02,,---,0.02,0.00,VWS V14.01,2013-11-22 07:14:00,
2013-11-22 01:15:00,46.4,44.2,30.16,North,359,5.0,17.0,92,0.02,,---,0.02,0.00,VWS V14.01,2013-11-22 07:15:00,
2013-11-22 01:16:00,46.4,44.2,30.16,NNW,327,7.0,17.0,92,0.02,,---,0.02,0.00,VWS V14.01,2013-11-22 07:16:00,
2013-11-22 01:17:00,46.4,44.2,30.16,NW,324,6.0,17.0,92,0.02,,---,0.02,0.00,VWS V14.01,2013-11-22 07:17:00,
2013-11-22 01:18:00,46.3,44.1,30.16,NW,324,21.0,21.0,92,0.02,,---,0.02,0.00,VWS V14.01,2013-11-22 07:18:00,
2013-11-22 01:19:00,46.3,44.1,30.16,NNE,15,14.0,21.0,92,0.02,,---,0.02,0.00,VWS V14.01,2013-11-22 07:19:00,
2013-11-22 01:20:00,46.2,44.0,30.16,NNW,337,15.0,21.0,92,0.02,,---,0.02,0.00,VWS V14.01,2013-11-22 07:20:00,
2013-11-22 01:21:00,46.2,44.0,30.16,NNW,341,6.0,21.0,92,0.02,,---,0.02,0.00,VWS V14.01,2013-11-22 07:21:00,
2013-11-22 01:24:00,46.1,43.9,30.16,NNW,332,17.0,23.0,92,0.02,,---,0.02,0.00,VWS V14.01,2013-11-22 07:24:00,
2013-11-22 01:25:00,46.0,43.8,30.15,NNW,341,11.0,23.0,92,0.02,,---,0.02,0.00,VWS V14.01,2013-11-22 07:25:00,
2013-11-22 01:26:00,46.0,43.8,30.15,North,349,8.0,23.0,92,0.02,,---,0.02,0.00,VWS V14.01,2013-11-22 07:26:00,
2013-11-22 01:28:00,45.9,43.7,30.16,NW,312,11.0,23.0,92,0.02,,---,0.02,0.00,VWS V14.01,2013-11-22 07:28:00,
2013-11-22 01:30:00,45.7,43.5,30.17,NW,326,5.0,23.0,92,0.02,,---,0.02,0.00,VWS V14.01,2013-11-22 07:30:00,
2013-11-22 01:31:00,45.7,43.5,30.17,NNW,328,12.0,23.0,92,0.02,,---,0.02,0.00,VWS V14.01,2013-11-22 07:31:00,
2013-11-22 01:35:00,45.5,43.3,30.17,NNW,341,7.0,17.0,92,0.00,,---,0.02,0.00,VWS V14.01,2013-11-22 07:35:00,
2013-11-22 01:36:00,45.4,43.2,30.17,North,355,8.0,17.0,92,0.00,,---,0.02,0.00,VWS V14.01,2013-11-22 07:36:00,
2013-11-22 01:37:00,45.4,43.2,30.17,NNW,334,6.0,17.0,92,0.00,,---,0.02,0.00,VWS V14.01,2013-11-22 07:37:00,
2013-11-22 01:38:00,45.4,43.2,30.17,North,352,5.0,17.0,92,0.00,,---,0.02,0.00,VWS V14.01,2013-11-22 07:38:00,
2013-11-22 01:42:00,45.2,43.3,30.17,NNW,330,9.0,17.0,93,0.00,,---,0.02,0.00,VWS V14.01,2013-11-22 07:42:00,
2013-11-22 01:43:00,45.2,43.3,30.17,NNW,339,13.0,17.0,93,0.00,,---,0.02,0.00,VWS V14.01,2013-11-22 07:43:00,
2013-11-22 01:44:00,45.1,43.2,30.18,NNW,340,9.0,17.0,93,0.00,,---,0.02,0.00,VWS V14.01,2013-11-22 07:44:00,
2013-11-22 01:45:00,45.1,43.2,30.18,NNW,330,10.0,17.0,93,0.00,,---,0.02,0.00,VWS V14.01,2013-11-22 07:45:00,
2013-11-22 01:46:00,45.1,43.2,30.18,NW,320,7.0,17.0,93,0.00,,---,0.02,0.00,VWS V14.01,2013-11-22 07:46:00,
2013-11-22 01:47:00,45.0,43.1,30.19,NNW,346,8.0,17.0,93,0.00,,---,0.02,0.00,VWS V14.01,2013-11-22 07:47:00,
2013-11-22 01:49:00,45.0,43.0,30.18,North,359,10.0,17.0,93,0.00,,,0.02,0,weatherlink.com 1.10,2013-11-22 07:49:00,
2013-11-22 01:50:00,45.0,43.1,30.18,NNW,335,13.0,18.0,93,0.00,,---,0.02,0.00,VWS V14.01,2013-11-22 07:50:00,
2013-11-22 01:51:00,44.9,43.0,30.18,NNW,340,7.0,21.0,93,0.00,,---,0.02,0.00,VWS V14.01,2013-11-22 07:51:00,
2013-11-22 01:52:00,44.9,43.0,30.18,NNW,343,17.0,21.0,93,0.00,,---,0.02,0.00,VWS V14.01,2013-11-22 07:52:00,
2013-11-22 01:54:00,44.9,43.0,30.18,North,356,12.0,21.0,93,0.00,,---,0.02,0.00,VWS V14.01,2013-11-22 07:54:00,
2013-11-22 01:56:00,44.8,42.6,30.18,NW,325,26.0,26.0,92,0.00,,---,0.02,0.00,VWS V14.01,2013-11-22 07:56:00,
2013-11-22 01:57:00,44.8,42.6,30.18,NNW,341,14.0,26.0,92,0.00,,---,0.02,0.00,VWS V14.01,2013-11-22 07:57:00,
2013-11-22 01:59:00,44.7,42.5,30.19,North,355,20.0,26.0,92,0.00,,---,0.02,0.00,VWS V14.01,2013-11-22 07:59:00,
2013-11-22 02:00:00,44.7,42.5,30.19,NNE,20,16.0,26.0,92,0.00,,---,0.02,0.00,VWS V14.01,2013-11-22 08:00:00,
2013-11-22 02:02:00,44.5,42.3,30.19,NNW,348,8.0,13.0,92,0.00,,---,0.02,0.00,VWS V14.01,2013-11-22 08:02:00,
2013-11-22 02:06:00,44.2,42.0,30.18,NNW,328,13.0,25.0,92,0.00,,---,0.02,0.00,VWS V14.01,2013-11-22 08:06:00,
2013-11-22 02:07:00,44.2,42.0,30.18,NNW,339,7.0,25.0,92,0.00,,---,0.02,0.00,VWS V14.01,2013-11-22 08:07:00,
2013-11-22 02:08:00,44.2,42.0,30.18,NNW,347,12.0,25.0,92,0.00,,---,0.02,0.00,VWS V14.01,2013-11-22 08:08:00,
2013-11-22 02:09:00,44.1,41.9,30.19,North,349,14.0,25.0,92,0.00,,---,0.02,0.00,VWS V14.01,2013-11-22 08:09:00,
2013-11-22 02:10:00,44.0,41.8,30.19,NNW,337,7.0,25.0,92,0.00,,---,0.02,0.00,VWS V14.01,2013-11-22 08:10:00,
2013-11-22 02:11:00,44.0,41.8,30.20,NW,320,7.0,25.0,92,0.00,,---,0.02,0.00,VWS V14.01,2013-11-22 08:11:00,
2013-11-22 02:13:00,44.0,41.8,30.20,NW,320,12.0,25.0,92,0.00,,---,0.02,0.00,VWS V14.01,2013-11-22 08:13:00,
2013-11-22 02:15:00,43.9,41.7,30.20,North,351,5.0,25.0,92,0.00,,---,0.02,0.00,VWS V14.01,2013-11-22 08:15:00,
2013-11-22 02:17:00,43.9,41.7,30.20,North,353,9.0,25.0,92,0.00,,---,0.02,0.00,VWS V14.01,2013-11-22 08:17:00,
2013-11-22 02:18:00,43.8,41.9,30.20,North,349,10.0,25.0,93,0.00,,---,0.02,0.00,VWS V14.01,2013-11-22 08:18:00,
2013-11-22 02:19:00,43.8,41.9,30.19,NW,314,8.0,25.0,93,0.00,,---,0.02,0.00,VWS V14.01,2013-11-22 08:19:00,
2013-11-22 02:20:00,43.9,42.0,30.19,NNW,335,14.0,25.0,93,0.01,,---,0.03,0.00,VWS V14.01,2013-11-22 08:20:00,
2013-11-22 02:21:00,43.9,42.0,30.19,North,353,13.0,25.0,93,0.01,,---,0.03,0.00,VWS V14.01,2013-11-22 08:21:00,
2013-11-22 02:23:00,43.7,41.8,30.20,NW,326,13.0,25.0,93,0.03,,---,0.05,0.00,VWS V14.01,2013-11-22 08:23:00,
2013-11-22 02:24:00,43.5,41.6,30.20,NNW,330,9.0,25.0,93,0.03,,---,0.05,0.00,VWS V14.01,2013-11-22 08:24:00,
2013-11-22 02:27:00,43.2,41.0,30.20,NW,326,13.0,26.0,92,0.05,,---,0.07,0.00,VWS V14.01,2013-11-22 08:27:00,
2013-11-22 02:29:00,43.1,41.2,30.20,North,8,10.0,26.0,93,0.06,,---,0.08,0.00,VWS V14.01,2013-11-22 08:29:00,
2013-11-22 02:30:00,43.0,41.1,30.21,NW,324,6.0,26.0,93,0.07,,---,0.09,0.00,VWS V14.01,2013-11-22 08:30:00,
2013-11-22 02:31:00,43.0,41.1,30.21,NW,324,15.0,26.0,93,0.08,,---,0.10,0.00,VWS V14.01,2013-11-22 08:31:00,
2013-11-22 02:32:00,43.0,41.1,30.21,North,9,9.0,15.0,93,0.08,,---,0.10,0.00,VWS V14.01,2013-11-22 08:32:00,
2013-11-22 02:34:00,42.9,41.0,30.22,North,354,7.0,18.0,93,0.09,,---,0.11,0.00,VWS V14.01,2013-11-22 08:34:00,
2013-11-22 02:36:00,42.9,41.0,30.23,NNW,335,4.0,18.0,93,0.09,,---,0.11,0.00,VWS V14.01,2013-11-22 08:36:00,
2013-11-22 02:38:00,42.9,41.0,30.23,North,355,5.0,18.0,93,0.09,,---,0.11,0.00,VWS V14.01,2013-11-22 08:38:00,
2013-11-22 02:39:00,42.9,41.0,30.22,NNW,339,10.0,18.0,93,0.11,,---,0.13,0.00,VWS V14.01,2013-11-22 08:39:00,
2013-11-22 02:41:00,42.9,41.0,30.21,NW,317,10.0,18.0,93,0.13,,---,0.15,0.00,VWS V14.01,2013-11-22 08:41:00,
2013-11-22 02:44:00,42.8,40.9,30.22,North,351,6.0,21.0,93,0.17,,---,0.19,0.00,VWS V14.01,2013-11-22 08:44:00,
2013-11-22 02:45:00,42.8,40.9,30.22,NW,325,1.0,21.0,93,0.18,,---,0.20,0.00,VWS V14.01,2013-11-22 08:45:00,
2013-11-22 02:47:00,42.7,40.8,30.23,NNW,330,7.0,21.0,93,0.19,,---,0.21,0.00,VWS V14.01,2013-11-22 08:47:00,
2013-11-22 02:48:00,42.7,40.8,30.24,NW,322,12.0,21.0,93,0.21,,---,0.23,0.00,VWS V14.01,2013-11-22 08:48:00,
2013-11-22 02:51:00,42.7,40.8,30.22,North,350,13.0,21.0,93,0.23,,---,0.25,0.00,VWS V14.01,2013-11-22 08:51:00,
2013-11-22 02:52:00,42.7,40.8,30.22,NNW,342,10.0,21.0,93,0.23,,---,0.25,0.00,VWS V14.01,2013-11-22 08:52:00,
2013-11-22 02:54:00,42.7,40.8,30.21,North,353,9.0,21.0,93,0.23,,---,0.25,0.00,VWS V14.01,2013-11-22 08:54:00,
2013-11-22 02:55:00,42.7,40.8,30.22,NNW,345,7.0,21.0,93,0.23,,---,0.25,0.00,VWS V14.01,2013-11-22 08:55:00,
2013-11-22 02:57:00,42.6,40.7,30.22,NNW,332,6.0,21.0,93,0.23,,---,0.25,0.00,VWS V14.01,2013-11-22 08:57:00,
2013-11-22 02:58:00,42.6,40.7,30.22,North,10,10.0,21.0,93,0.23,,---,0.25,0.00,VWS V14.01,2013-11-22 08:58:00,
2013-11-22 03:01:00,42.6,40.7,30.22,NNW,344,11.0,21.0,93,0.24,,---,0.26,0.00,VWS V14.01,2013-11-22 09:01:00,
2013-11-22 03:02:00,42.6,40.7,30.21,North,351,8.0,12.0,93,0.24,,---,0.26,0.00,VWS V14.01,2013-11-22 09:02:00,
2013-11-22 03:03:00,42.7,40.8,30.21,NW,324,12.0,12.0,93,0.24,,---,0.26,0.00,VWS V14.01,2013-11-22 09:03:00,
2013-11-22 03:04:00,42.7,40.8,30.20,North,355,15.0,18.0,93,0.24,,---,0.26,0.00,VWS V14.01,2013-11-22 09:04:00,
2013-11-22 03:06:00,42.5,40.6,30.21,NNW,344,19.0,19.0,93,0.24,,---,0.26,0.00,VWS V14.01,2013-11-22 09:06:00,
2013-11-22 03:07:00,42.3,40.4,30.21,NNW,345,12.0,19.0,93,0.24,,---,0.26,0.00,VWS V14.01,2013-11-22 09:07:00,
2013-11-22 03:08:00,42.3,40.4,30.21,North,349,10.0,19.0,93,0.24,,---,0.26,0.00,VWS V14.01,2013-11-22 09:08:00,
2013-11-22 03:09:00,42.3,40.4,30.21,NNW,334,13.0,19.0,93,0.24,,---,0.26,0.00,VWS V14.01,2013-11-22 09:09:00,
2013-11-22 03:11:00,42.2,40.3,30.21,North,349,7.0,19.0,93,0.24,,---,0.26,0.00,VWS V14.01,2013-11-22 09:11:00,
2013-11-22 03:12:00,42.2,40.3,30.21,NNW,347,8.0,19.0,93,0.24,,---,0.26,0.00,VWS V14.01,2013-11-22 09:12:00,
2013-11-22 03:13:00,42.2,40.3,30.21,NNW,347,16.0,19.0,93,0.24,,---,0.26,0.00,VWS V14.01,2013-11-22 09:13:00,
2013-11-22 03:14:00,42.2,40.3,30.21,NW,313,12.0,19.0,93,0.24,,---,0.26,0.00,VWS V14.01,2013-11-22 09:14:00,
2013-11-22 03:15:00,42.2,40.3,30.21,NNW,343,7.0,19.0,93,0.24,,---,0.26,0.00,VWS V14.01,2013-11-22 09:15:00,
2013-11-22 03:16:00,42.2,40.3,30.21,NNW,342,9.0,21.0,93,0.24,,---,0.26,0.00,VWS V14.01,2013-11-22 09:16:00,
2013-11-22 03:18:00,42.2,40.3,30.21,NNW,341,13.0,21.0,93,0.24,,---,0.26,0.00,VWS V14.01,2013-11-22 09:18:00,
2013-11-22 03:20:00,42.2,40.3,30.22,North,351,10.0,21.0,93,0.24,,---,0.26,0.00,VWS V14.01,2013-11-22 09:20:00,
2013-11-22 03:21:00,42.3,40.4,30.22,North,10,7.0,21.0,93,0.24,,---,0.26,0.00,VWS V14.01,2013-11-22 09:21:00,
2013-11-22 03:23:00,42.4,40.5,30.22,NW,315,6.0,21.0,93,0.24,,---,0.26,0.00,VWS V14.01,2013-11-22 09:23:00,
2013-11-22 03:25:00,42.4,40.5,30.22,NNW,329,9.0,21.0,93,0.24,,---,0.26,0.00,VWS V14.01,2013-11-22 09:25:00,
2013-11-22 03:26:00,42.4,40.5,30.22,North,353,10.0,21.0,93,0.24,,---,0.26,0.00,VWS V14.01,2013-11-22 09:26:00,
2013-11-22 03:28:00,42.4,40.5,30.22,NW,313,9.0,21.0,93,0.24,,---,0.26,0.00,VWS V14.01,2013-11-22 09:28:00,
2013-11-22 03:30:00,42.4,40.5,30.22,North,351,8.0,21.0,93,0.24,,---,0.26,0.00,VWS V14.01,2013-11-22 09:30:00,
2013-11-22 03:31:00,42.4,40.5,30.22,NNW,341,4.0,21.0,93,0.24,,---,0.26,0.00,VWS V14.01,2013-11-22 09:31:00,
2013-11-22 03:33:00,42.3,40.4,30.22,NNW,343,7.0,17.0,93,0.16,,---,0.26,0.00,VWS V14.01,2013-11-22 09:33:00,
2013-11-22 03:34:00,42.3,40.4,30.22,NNW,341,9.0,17.0,93,0.16,,---,0.26,0.00,VWS V14.01,2013-11-22 09:34:00,
2013-11-22 03:37:00,42.3,40.4,30.22,NW,307,6.0,18.0,93,0.16,,---,0.26,0.00,VWS V14.01,2013-11-22 09:37:00,
2013-11-22 03:38:00,42.3,40.4,30.22,NNW,339,9.0,18.0,93,0.16,,---,0.26,0.00,VWS V14.01,2013-11-22 09:38:00,
2013-11-22 03:40:00,42.1,40.2,30.22,WNW,289,8.0,18.0,93,0.16,,---,0.26,0.00,VWS V14.01,2013-11-22 09:40:00,
2013-11-22 03:41:00,42.0,40.1,30.22,NW,324,12.0,18.0,93,0.16,,---,0.26,0.00,VWS V14.01,2013-11-22 09:41:00,
2013-11-22 03:45:00,42.0,40.1,30.22,NNW,336,8.0,18.0,93,0.16,,---,0.26,0.00,VWS V14.01,2013-11-22 09:45:00,
2013-11-22 03:46:00,42.0,40.1,30.22,North,356,10.0,18.0,93,0.16,,---,0.26,0.00,VWS V14.01,2013-11-22 09:46:00,
2013-11-22 03:47:00,41.9,40.0,30.22,NNW,328,13.0,18.0,93,0.16,,---,0.26,0.00,VWS V14.01,2013-11-22 09:47:00,
2013-11-22 03:49:00,41.9,40.0,30.23,NW,321,9.0,18.0,93,0.16,,---,0.26,0.00,VWS V14.01,2013-11-22 09:49:00,
2013-11-22 03:50:00,41.9,40.0,30.22,NNW,337,12.0,18.0,93,0.16,,---,0.26,0.00,VWS V14.01,2013-11-22 09:50:00,
2013-11-22 03:51:00,41.8,39.7,30.23,North,349,10.0,18.0,92,0.16,,---,0.26,0.00,VWS V14.01,2013-11-22 09:51:00,
2013-11-22 03:54:00,41.8,39.7,30.23,North,6,12.0,18.0,92,0.16,,---,0.26,0.00,VWS V14.01,2013-11-22 09:54:00,
2013-11-22 03:55:00,41.8,39.7,30.23,NNW,330,6.0,20.0,92,0.16,,---,0.26,0.00,VWS V14.01,2013-11-22 09:55:00,
2013-11-22 03:57:00,41.8,39.7,30.23,NNW,327,19.0,20.0,92,0.16,,---,0.26,0.00,VWS V14.01,2013-11-22 09:57:00,
2013-11-22 03:59:00,41.8,39.7,30.23,NNW,343,8.0,20.0,92,0.16,,---,0.26,0.00,VWS V14.01,2013-11-22 09:59:00,
2013-11-22 04:00:00,41.8,39.7,30.23,NNW,341,11.0,20.0,92,0.16,,---,0.26,0.00,VWS V14.01,2013-11-22 10:00:00,
2013-11-22 04:01:00,41.8,39.7,30.24,NNW,339,14.0,20.0,92,0.16,,---,0.26,0.00,VWS V14.01,2013-11-22 10:01:00,
2013-11-22 04:02:00,41.8,39.7,30.24,North,353,9.0,13.0,92,0.00,,---,0.26,0.00,VWS V14.01,2013-11-22 10:02:00,
2013-11-22 04:04:00,41.8,39.7,30.23,WNW,300,11.0,19.0,92,0.00,,---,0.26,0.00,VWS V14.01,2013-11-22 10:04:00,
2013-11-22 04:05:00,41.8,39.7,30.24,North,352,9.0,19.0,92,0.00,,---,0.26,0.00,VWS V14.01,2013-11-22 10:05:00,
2013-11-22 04:07:00,41.8,39.7,30.24,NNW,345,12.0,19.0,92,0.00,,---,0.26,0.00,VWS V14.01,2013-11-22 10:07:00,
2013-11-22 04:08:00,41.8,39.7,30.24,NW,326,10.0,19.0,92,0.00,,---,0.26,0.00,VWS V14.01,2013-11-22 10:08:00,
2013-11-22 04:09:00,41.8,39.7,30.24,NNW,328,11.0,19.0,92,0.00,,---,0.26,0.00,VWS V14.01,2013-11-22 10:09:00,
2013-11-22 04:11:00,41.8,39.7,30.24,NNW,347,6.0,19.0,92,0.00,,---,0.26,0.00,VWS V14.01,2013-11-22 10:11:00,
2013-11-22 04:13:00,41.8,39.7,30.24,NNW,335,13.0,19.0,92,0.00,,---,0.26,0.00,VWS V14.01,2013-11-22 10:13:00,
2013-11-22 04:15:00,41.8,39.7,30.24,NNW,333,9.0,19.0,92,0.00,,---,0.26,0.00,VWS V14.01,2013-11-22 10:15:00,
2013-11-22 04:16:00,41.8,39.7,30.24,NNW,340,11.0,19.0,92,0.00,,---,0.26,0.00,VWS V14.01,2013-11-22 10:16:00,
2013-11-22 04:17:00,41.8,39.7,30.24,NNE,12,6.0,19.0,92,0.00,,---,0.26,0.00,VWS V14.01,2013-11-22 10:17:00,
2013-11-22 04:20:00,41.8,39.7,30.25,North,350,4.0,19.0,92,0.00,,---,0.26,0.00,VWS V14.01,2013-11-22 10:20:00,
2013-11-22 04:22:00,41.9,40.0,30.25,NNW,347,3.0,19.0,93,0.00,,---,0.26,0.00,VWS V14.01,2013-11-22 10:22:00,
2013-11-22 04:24:00,41.8,39.9,30.24,North,353,14.0,19.0,93,0.00,,---,0.26,0.00,VWS V14.01,2013-11-22 10:24:00,
2013-11-22 04:25:00,41.7,39.5,30.24,NW,307,3.0,19.0,92,0.00,,---,0.26,0.00,VWS V14.01,2013-11-22 10:25:00,
2013-11-22 04:26:00,41.7,39.5,30.24,NW,324,6.0,19.0,92,0.00,,---,0.26,0.00,VWS V14.01,2013-11-22 10:26:00,
2013-11-22 04:27:00,41.7,39.8,30.25,North,4,6.0,19.0,93,0.00,,---,0.26,0.00,VWS V14.01,2013-11-22 10:27:00,
2013-11-22 04:30:00,41.5,39.3,30.25,North,359,12.0,19.0,92,0.00,,---,0.26,0.00,VWS V14.01,2013-11-22 10:30:00,
2013-11-22 04:31:00,41.5,39.3,30.25,NW,320,7.0,19.0,92,0.00,,---,0.26,0.00,VWS V14.01,2013-11-22 10:31:00,
2013-11-22 04:32:00,41.4,39.2,30.25,NNW,337,12.0,17.0,92,0.00,,---,0.26,0.00,VWS V14.01,2013-11-22 10:32:00,
2013-11-22 04:36:00,41.2,39.1,30.25,NNW,328,9.0,18.0,92,0.00,,---,0.26,0.00,VWS V14.01,2013-11-22 10:36:00,
2013-11-22 04:38:00,41.2,39.1,30.25,NNW,339,15.0,21.0,92,0.00,,---,0.26,0.00,VWS V14.01,2013-11-22 10:38:00,
2013-11-22 04:39:00,41.1,39.0,30.25,NNW,332,9.0,21.0,92,0.00,,---,0.26,0.00,VWS V14.01,2013-11-22 10:39:00,
2013-11-22 04:40:00,41.1,39.0,30.25,North,355,7.0,21.0,92,0.00,,---,0.26,0.00,VWS V14.01,2013-11-22 10:40:00,
2013-11-22 04:42:00,41.1,39.0,30.25,NNW,331,14.0,21.0,92,0.00,,---,0.26,0.00,VWS V14.01,2013-11-22 10:42:00,
2013-11-22 04:43:00,41.1,39.0,30.25,North,349,10.0,17.0,92,0.00,,,0.26,0,weatherlink.com 1.10,2013-11-22 10:43:00,
2013-11-22 04:44:00,41.1,39.0,30.24,NNW,348,11.0,21.0,92,0.00,,---,0.26,0.00,VWS V14.01,2013-11-22 10:44:00,
2013-11-22 04:45:00,41.0,38.9,30.24,NNW,331,8.0,21.0,92,0.00,,---,0.26,0.00,VWS V14.01,2013-11-22 10:45:00,
2013-11-22 04:47:00,41.0,38.9,30.24,NNW,338,4.0,22.0,92,0.00,,---,0.26,0.00,VWS V14.01,2013-11-22 10:47:00,
2013-11-22 04:49:00,41.0,38.9,30.25,NNW,330,15.0,22.0,92,0.00,,---,0.26,0.00,VWS V14.01,2013-11-22 10:49:00,
2013-11-22 04:50:00,41.0,38.9,30.25,NNW,339,9.0,22.0,92,0.00,,---,0.26,0.00,VWS V14.01,2013-11-22 10:50:00,
2013-11-22 04:51:00,41.0,38.9,30.25,NNW,332,15.0,22.0,92,0.00,,---,0.26,0.00,VWS V14.01,2013-11-22 10:51:00,
2013-11-22 04:52:00,40.9,38.8,30.25,North,1,9.0,23.0,92,0.00,,---,0.26,0.00,VWS V14.01,2013-11-22 10:52:00,
2013-11-22 04:56:00,40.9,38.5,30.25,NNW,347,11.0,23.0,91,0.00,,---,0.26,0.00,VWS V14.01,2013-11-22 10:56:00,
2013-11-22 04:57:00,40.8,38.7,30.25,North,359,7.0,23.0,92,0.00,,---,0.26,0.00,VWS V14.01,2013-11-22 10:57:00,
2013-11-22 04:58:00,40.8,38.7,30.25,NW,325,10.0,23.0,92,0.00,,---,0.26,0.00,VWS V14.01,2013-11-22 10:58:00,
2013-11-22 05:01:00,40.8,38.7,30.25,NW,324,10.0,23.0,92,0.00,,---,0.26,0.00,VWS V14.01,2013-11-22 11:01:00,
2013-11-22 05:02:00,40.8,38.7,30.25,NNW,338,6.0,13.0,92,0.00,,---,0.26,0.00,VWS V14.01,2013-11-22 11:02:00,
2013-11-22 05:04:00,40.9,38.8,30.25,North,359,8.0,15.0,92,0.00,,---,0.26,0.00,VWS V14.01,2013-11-22 11:04:00,
2013-11-22 05:07:00,40.9,38.8,30.25,NNW,346,9.0,15.0,92,0.00,,---,0.26,0.00,VWS V14.01,2013-11-22 11:07:00,
2013-11-22 05:09:00,40.9,38.8,30.25,North,353,11.0,15.0,92,0.00,,---,0.26,0.00,VWS V14.01,2013-11-22 11:09:00,
2013-11-22 05:12:00,40.8,38.7,30.25,North,354,11.0,16.0,92,0.00,,---,0.26,0.00,VWS V14.01,2013-11-22 11:12:00,
2013-11-22 05:13:00,40.8,38.7,30.25,North,357,13.0,16.0,92,0.01,,---,0.27,0.00,VWS V14.01,2013-11-22 11:13:00,
2013-11-22 05:14:00,40.8,38.7,30.25,NW,323,7.0,16.0,92,0.01,,---,0.27,0.00,VWS V14.01,2013-11-22 11:14:00,
2013-11-22 05:15:00,40.7,38.6,30.25,NNW,344,8.0,16.0,92,0.01,,---,0.27,0.00,VWS V14.01,2013-11-22 11:15:00,
2013-11-22 05:18:00,40.6,38.5,30.25,NNW,346,10.0,20.0,92,0.01,,---,0.27,0.00,VWS V14.01,2013-11-22 11:18:00,
2013-11-22 05:19:00,40.6,38.5,30.25,NNE,20,13.0,20.0,92,0.01,,---,0.27,0.00,VWS V14.01,2013-11-22 11:19:00,
2013-11-22 05:20:00,40.6,38.5,30.25,NW,312,10.0,20.0,92,0.01,,---,0.27,0.00,VWS V14.01,2013-11-22 11:20:00,
2013-11-22 05:21:00,40.6,38.5,30.25,WNW,302,8.0,20.0,92,0.01,,---,0.27,0.00,VWS V14.01,2013-11-22 11:21:00,
2013-11-22 05:23:00,40.6,38.5,30.25,North,3,12.0,20.0,92,0.01,,---,0.27,0.00,VWS V14.01,2013-11-22 11:23:00,
2013-11-22 05:24:00,40.5,38.4,30.26,NW,313,7.0,20.0,92,0.01,,---,0.27,0.00,VWS V14.01,2013-11-22 11:24:00,
2013-11-22 05:25:00,40.5,38.4,30.26,North,352,6.0,20.0,92,0.01,,---,0.27,0.00,VWS V14.01,2013-11-22 11:25:00,
2013-11-22 05:26:00,40.6,38.5,30.25,North,359,9.0,20.0,92,0.01,,---,0.27,0.00,VWS V14.01,2013-11-22 11:26:00,
2013-11-22 05:27:00,40.5,38.4,30.25,North,358,14.0,20.0,92,0.01,,---,0.27,0.00,VWS V14.01,2013-11-22 11:27:00,
2013-11-22 05:30:00,40.4,38.3,30.26,NNW,333,11.0,20.0,92,0.01,,---,0.27,0.00,VWS V14.01,2013-11-22 11:30:00,
2013-11-22 05:31:00,40.5,38.4,30.26,NW,319,13.0,20.0,92,0.01,,---,0.27,0.00,VWS V14.01,2013-11-22 11:31:00,
2013-11-22 05:32:00,40.4,38.3,30.26,NW,318,19.0,19.0,92,0.01,,---,0.27,0.00,VWS V14.01,2013-11-22 11:32:00,
2013-11-22 05:33:00,40.4,38.3,30.26,NNW,343,11.0,23.0,92,0.01,,---,0.27,0.00,VWS V14.01,2013-11-22 11:33:00,
2013-11-22 05:36:00,40.4,38.3,30.26,NNW,339,15.0,23.0,92,0.01,,---,0.27,0.00,VWS V14.01,2013-11-22 11:36:00,
2013-11-22 05:38:00,40.4,38.3,30.26,NNW,338,8.0,23.0,92,0.01,,---,0.27,0.00,VWS V14.01,2013-11-22 11:38:00,
2013-11-22 05:39:00,40.4,38.3,30.27,NNW,328,12.0,23.0,92,0.01,,---,0.27,0.00,VWS V14.01,2013-11-22 11:39:00,
2013-11-22 05:41:00,40.4,38.3,30.27,NNW,337,5.0,23.0,92,0.01,,---,0.27,0.00,VWS V14.01,2013-11-22 11:41:00,
2013-11-22 05:45:00,40.4,38.3,30.28,NW,323,7.0,23.0,92,0.01,,---,0.27,0.00,VWS V14.01,2013-11-22 11:45:00,
2013-11-22 05:47:00,40.5,38.4,30.28,NW,318,9.0,23.0,92,0.01,,---,0.27,0.00,VWS V14.01,2013-11-22 11:47:00,
2013-11-22 05:48:00,40.5,38.4,30.28,NNW,348,11.0,23.0,92,0.01,,---,0.27,0.00,VWS V14.01,2013-11-22 11:48:00,
2013-11-22 05:49:00,40.4,38.3,30.28,North,355,7.0,23.0,92,0.01,,---,0.27,0.00,VWS V14.01,2013-11-22 11:49:00,
2013-11-22 05:52:00,40.4,38.3,30.29,NW,321,14.0,23.0,92,0.01,,---,0.27,0.00,VWS V14.01,2013-11-22 11:52:00,
2013-11-22 05:53:00,40.3,38.2,30.28,North,5,11.0,23.0,92,0.01,,---,0.27,0.00,VWS V14.01,2013-11-22 11:53:00,
2013-11-22 05:54:00,40.2,38.1,30.28,NNW,337,6.0,23.0,92,0.01,,---,0.27,0.00,VWS V14.01,2013-11-22 11:54:00,
2013-11-22 05:56:00,40.1,38.0,30.28,NNW,347,11.0,23.0,92,0.01,,---,0.27,0.00,VWS V14.01,2013-11-22 11:56:00,
2013-11-22 05:57:00,40.1,38.0,30.29,North,5,15.0,23.0,92,0.01,,---,0.27,0.00,VWS V14.01,2013-11-22 11:57:00,
2013-11-22 05:58:00,40.1,38.0,30.29,NNW,330,3.0,23.0,92,0.01,,---,0.27,0.00,VWS V14.01,2013-11-22 11:58:00,
2013-11-22 05:59:00,40.1,38.0,30.29,NNW,335,11.0,23.0,92,0.01,,---,0.27,0.00,VWS V14.01,2013-11-22 11:59:00,
2013-11-22 06:00:00,40.0,37.9,30.29,NW,321,9.0,23.0,92,0.01,,---,0.27,0.00,VWS V14.01,2013-11-22 12:00:00,
2013-11-22 06:01:00,40.0,37.9,30.29,NNW,328,15.0,23.0,92,0.01,,---,0.27,0.00,VWS V14.01,2013-11-22 12:01:00,
2013-11-22 06:03:00,39.9,37.8,30.28,NNW,339,17.0,22.0,92,0.01,,---,0.27,0.00,VWS V14.01,2013-11-22 12:03:00,
2013-11-22 06:04:00,39.8,37.7,30.28,NNW,341,10.0,22.0,92,0.01,,---,0.27,0.00,VWS V14.01,2013-11-22 12:04:00,
2013-11-22 06:06:00,39.8,37.7,30.28,NNW,339,13.0,22.0,92,0.01,,---,0.27,0.00,VWS V14.01,2013-11-22 12:06:00,
2013-11-22 06:09:00,39.7,37.6,30.29,NNW,340,13.0,22.0,92,0.01,,---,0.27,0.00,VWS V14.01,2013-11-22 12:09:00,
2013-11-22 06:10:00,39.6,37.5,30.29,NW,324,12.0,22.0,92,0.01,,---,0.27,0.00,VWS V14.01,2013-11-22 12:10:00,
2013-11-22 06:11:00,39.6,37.5,30.29,North,355,9.0,22.0,92,0.01,,---,0.27,0.00,VWS V14.01,2013-11-22 12:11:00,
2013-11-22 06:16:00,39.5,37.1,30.29,North,357,12.0,25.0,91,0.01,,---,0.27,0.00,VWS V14.01,2013-11-22 12:16:00,
2013-11-22 06:17:00,39.5,37.1,30.29,North,358,10.0,25.0,91,0.01,,---,0.27,0.00,VWS V14.01,2013-11-22 12:17:00,
2013-11-22 06:19:00,39.5,37.4,30.29,NW,325,12.0,25.0,92,0.01,,---,0.27,0.00,VWS V14.01,2013-11-22 12:19:00,
2013-11-22 06:21:00,39.6,37.5,30.29,NNW,345,12.0,25.0,92,0.01,,---,0.27,0.00,VWS V14.01,2013-11-22 12:21:00,
2013-11-22 06:24:00,39.5,37.4,30.29,NNW,347,12.0,25.0,92,0.01,,---,0.27,0.00,VWS V14.01,2013-11-22 12:24:00,
2013-11-22 06:25:00,39.5,37.4,30.29,NNW,332,12.0,25.0,92,0.01,,---,0.27,0.00,VWS V14.01,2013-11-22 12:25:00,
2013-11-22 06:26:00,39.5,37.4,30.29,NNW,346,9.0,25.0,92,0.01,,---,0.27,0.00,VWS V14.01,2013-11-22 12:26:00,
2013-11-22 06:27:00,39.5,37.4,30.29,NNW,343,10.0,25.0,92,0.01,,---,0.27,0.00,VWS V14.01,2013-11-22 12:27:00,
2013-11-22 06:28:00,39.5,37.4,30.29,North,353,9.0,25.0,92,0.01,,---,0.27,0.00,VWS V14.01,2013-11-22 12:28:00,
2013-11-22 06:29:00,39.5,37.4,30.29,NNW,348,6.0,25.0,92,0.01,,---,0.27,0.00,VWS V14.01,2013-11-22 12:29:00,
2013-11-22 06:30:00,39.5,37.4,30.29,NNW,345,10.0,25.0,92,0.01,,---,0.27,0.00,VWS V14.01,2013-11-22 12:30:00,
2013-11-22 06:31:00,39.5,37.4,30.29,NNW,340,8.0,12.0,92,0.00,,---,0.27,0.00,VWS V14.01,2013-11-22 12:31:00,
2013-11-22 06:34:00,39.5,37.4,30.29,North,357,8.0,13.0,92,0.00,,---,0.27,0.00,VWS V14.01,2013-11-22 12:34:00,
2013-11-22 06:35:00,39.5,37.4,30.29,NNW,340,14.0,17.0,92,0.00,,---,0.27,0.00,VWS V14.01,2013-11-22 12:35:00,
2013-11-22 06:36:00,39.5,37.4,30.29,North,353,9.0,17.0,92,0.00,,---,0.27,0.00,VWS V14.01,2013-11-22 12:36:00,
2013-11-22 06:38:00,39.5,37.4,30.29,NNW,340,5.0,17.0,92,0.00,,---,0.27,0.00,VWS V14.01,2013-11-22 12:38:00,
2013-11-22 06:40:00,39.6,37.5,30.30,NNW,344,13.0,17.0,92,0.00,,---,0.27,0.00,VWS V14.01,2013-11-22 12:40:00,
2013-11-22 06:41:00,39.5,37.4,30.30,NNW,341,11.0,17.0,92,0.00,,---,0.27,0.00,VWS V14.01,2013-11-22 12:41:00,
2013-11-22 06:42:00,39.5,37.4,30.30,NNW,347,6.0,17.0,92,0.00,,---,0.27,0.00,VWS V14.01,2013-11-22 12:42:00,
2013-11-22 06:43:00,39.5,37.4,30.30,NW,325,11.0,17.0,92,0.00,,---,0.27,0.00,VWS V14.01,2013-11-22 12:43:00,
2013-11-22 06:44:00,39.5,37.4,30.30,NNW,347,8.0,18.0,92,0.00,,---,0.27,0.00,VWS V14.01,2013-11-22 12:44:00,
2013-11-22 06:47:00,39.6,37.5,30.30,North,354,11.0,18.0,92,0.00,,---,0.27,0.00,VWS V14.01,2013-11-22 12:47:00,
2013-11-22 06:48:00,39.5,37.4,30.30,North,360,8.0,18.0,92,0.00,,---,0.27,0.00,VWS V14.01,2013-11-22 12:48:00,
2013-11-22 06:49:00,39.6,37.5,30.30,NNW,332,23.0,23.0,92,0.00,,---,0.27,0.00,VWS V14.01,2013-11-22 12:49:00,
2013-11-22 06:50:00,39.5,37.4,30.30,NNW,339,13.0,23.0,92,0.00,,---,0.27,0.00,VWS V14.01,2013-11-22 12:50:00,
2013-11-22 06:52:00,39.5,37.4,30.30,NNW,347,11.0,23.0,92,0.00,,---,0.27,0.00,VWS V14.01,2013-11-22 12:52:00,
2013-11-22 06:55:00,39.5,37.4,30.30,North,2,7.0,23.0,92,0.00,,---,0.27,0.00,VWS V14.01,2013-11-22 12:55:00,
2013-11-22 06:56:00,39.5,37.4,30.30,NNW,340,8.0,23.0,92,0.00,,---,0.27,0.00,VWS V14.01,2013-11-22 12:56:00,
2013-11-22 06:57:00,39.6,37.5,30.30,NNW,339,6.0,23.0,92,0.00,,---,0.27,0.00,VWS V14.01,2013-11-22 12:57:00,
2013-11-22 07:00:00,39.5,37.4,30.30,NNE,12,6.0,23.0,92,0.00,,---,0.27,0.00,VWS V14.01,2013-11-22 13:00:00,
2013-11-22 07:01:00,39.5,37.4,30.30,North,349,9.0,23.0,92,0.00,,---,0.27,0.00,VWS V14.01,2013-11-22 13:01:00,
2013-11-22 07:02:00,39.6,37.8,30.30,NNW,328,6.0,11.0,93,0.00,,---,0.27,0.00,VWS V14.01,2013-11-22 13:02:00,
2013-11-22 07:03:00,39.6,37.8,30.29,NNW,346,8.0,14.0,93,0.00,,---,0.27,0.00,VWS V14.01,2013-11-22 13:03:00,
2013-11-22 07:05:00,39.5,37.7,30.29,NNW,348,14.0,20.0,93,0.00,,---,0.27,0.00,VWS V14.01,2013-11-22 13:05:00,
2013-11-22 07:06:00,39.4,37.5,30.29,NNW,327,11.0,20.0,93,0.00,,---,0.27,0.00,VWS V14.01,2013-11-22 13:06:00,
2013-11-22 07:08:00,39.5,37.7,30.30,NW,326,11.0,20.0,93,0.00,,---,0.27,0.00,VWS V14.01,2013-11-22 13:08:00,
2013-11-22 07:10:00,39.4,37.5,30.30,NE,35,18.0,20.0,93,0.00,,---,0.27,0.00,VWS V14.01,2013-11-22 13:10:00,
2013-11-22 07:12:00,39.4,37.5,30.31,NW,314,9.0,20.0,93,0.00,,---,0.27,0.00,VWS V14.01,2013-11-22 13:12:00,
2013-11-22 07:13:00,39.4,37.3,30.31,NNW,344,9.0,20.0,92,0.00,,---,0.27,0.00,VWS V14.01,2013-11-22 13:13:00,
2013-11-22 07:16:00,39.4,37.3,30.30,North,355,9.0,20.0,92,0.00,,---,0.27,0.00,VWS V14.01,2013-11-22 13:16:00,
2013-11-22 07:17:00,39.5,37.7,30.31,NNW,347,11.0,20.0,93,0.00,,---,0.27,0.00,VWS V14.01,2013-11-22 13:17:00,
2013-11-22 07:18:00,39.4,38.0,30.31,North,357,9.0,19.0,93,0.00,,,0.27,0,weatherlink.com 1.10,2013-11-22 13:18:00,
2013-11-22 07:22:00,39.4,37.5,30.32,NNW,327,10.0,20.0,93,0.00,,---,0.27,0.00,VWS V14.01,2013-11-22 13:22:00,
2013-11-22 07:23:00,39.4,37.5,30.32,North,359,6.0,20.0,93,0.00,,---,0.27,0.00,VWS V14.01,2013-11-22 13:23:00,
2013-11-22 07:24:00,39.4,37.5,30.31,North,6,11.0,20.0,93,0.00,,---,0.27,0.00,VWS V14.01,2013-11-22 13:24:00,
2013-11-22 07:25:00,39.4,37.5,30.32,NW,324,17.0,20.0,93,0.00,,---,0.27,0.00,VWS V14.01,2013-11-22 13:25:00,
2013-11-22 07:27:00,39.3,37.5,30.32,NNW,341,12.0,20.0,93,0.00,,---,0.27,0.00,VWS V14.01,2013-11-22 13:27:00,
2013-11-22 07:29:00,39.3,37.5,30.31,NNW,332,11.0,21.0,93,0.00,,---,0.27,0.00,VWS V14.01,2013-11-22 13:29:00,
2013-11-22 07:30:00,39.2,37.3,30.31,North,359,12.0,21.0,93,0.00,,---,0.27,0.00,VWS V14.01,2013-11-22 13:30:00,
2013-11-22 07:32:00,39.2,37.3,30.31,North,7,13.0,13.0,93,0.00,,---,0.27,5.00,VWS V14.01,2013-11-22 13:32:00,
2013-11-22 07:35:00,39.2,37.3,30.31,North,359,6.0,13.0,93,0.02,,---,0.29,5.00,VWS V14.01,2013-11-22 13:35:00,
2013-11-22 07:36:00,39.2,37.3,30.31,North,357,6.0,13.0,93,0.03,,---,0.30,5.00,VWS V14.01,2013-11-22 13:36:00,
2013-11-22 07:38:00,39.1,37.2,30.31,North,349,15.0,18.0,93,0.05,,---,0.32,5.00,VWS V14.01,2013-11-22 13:38:00,
2013-11-22 07:41:00,38.9,37.0,30.32,North,360,9.0,21.0,93,0.06,,---,0.33,0.00,VWS V14.01,2013-11-22 13:41:00,
2013-11-22 07:42:00,38.9,37.0,30.32,NNW,340,13.0,21.0,93,0.06,,---,0.33,0.00,VWS V14.01,2013-11-22 13:42:00,
2013-11-22 07:43:00,38.9,37.0,30.33,North,353,11.0,21.0,93,0.06,,---,0.33,0.00,VWS V14.01,2013-11-22 13:43:00,
2013-11-22 07:44:00,38.9,37.0,30.33,NNW,347,11.0,21.0,93,0.06,,---,0.33,0.00,VWS V14.01,2013-11-22 13:44:00,
2013-11-22 07:48:00,38.9,37.0,30.34,North,358,8.0,21.0,93,0.07,,---,0.34,0.00,VWS V14.01,2013-11-22 13:48:00,
2013-11-22 07:49:00,39.0,37.2,30.34,North,353,11.0,21.0,93,0.07,,---,0.34,0.00,VWS V14.01,2013-11-22 13:49:00,
2013-11-22 07:50:00,39.0,37.2,30.34,NNE,15,5.0,21.0,93,0.07,,---,0.34,0.00,VWS V14.01,2013-11-22 13:50:00,
2013-11-22 07:52:00,39.0,37.2,30.34,NNW,343,5.0,21.0,93,0.07,,---,0.34,0.00,VWS V14.01,2013-11-22 13:52:00,
2013-11-22 07:55:00,38.9,37.0,30.33,North,352,9.0,21.0,93,0.07,,---,0.34,0.00,VWS V14.01,2013-11-22 13:55:00,
2013-11-22 07:58:00,38.9,37.0,30.33,North,359,14.0,21.0,93,0.07,,---,0.34,7.00,VWS V14.01,2013-11-22 13:58:00,
2013-11-22 07:59:00,38.9,37.0,30.32,NW,315,8.0,21.0,93,0.07,,---,0.34,5.00,VWS V14.01,2013-11-22 13:59:00,
2013-11-22 08:01:00,38.9,37.0,30.33,NNE,14,7.0,21.0,93,0.07,,---,0.34,7.00,VWS V14.01,2013-11-22 14:01:00,
2013-11-22 08:03:00,38.9,37.0,30.34,NNW,333,8.0,23.0,93,0.07,,---,0.34,7.00,VWS V14.01,2013-11-22 14:03:00,
2013-11-22 08:04:00,38.9,37.0,30.34,North,1,15.0,23.0,93,0.07,,---,0.34,7.00,VWS V14.01,2013-11-22 14:04:00,
2013-11-22 08:05:00,38.9,37.0,30.33,North,359,16.0,23.0,93,0.07,,---,0.34,7.00,VWS V14.01,2013-11-22 14:05:00,
2013-11-22 08:07:00,38.9,37.0,30.33,North,2,16.0,23.0,93,0.07,,---,0.34,7.00,VWS V14.01,2013-11-22 14:07:00,
2013-11-22 08:09:00,38.9,37.0,30.34,NNW,327,10.0,23.0,93,0.07,,---,0.34,7.00,VWS V14.01,2013-11-22 14:09:00,
2013-11-22 08:10:00,38.9,37.0,30.34,NW,318,13.0,19.0,93,0.07,,,0.34,7,weatherlink.com 1.10,2013-11-22 14:10:00,
2013-11-22 08:11:00,38.9,37.0,30.34,NNW,348,11.0,23.0,93,0.07,,---,0.34,7.00,VWS V14.01,2013-11-22 14:11:00,
2013-11-22 08:13:00,38.9,37.0,30.35,North,349,8.0,23.0,93,0.07,,---,0.34,7.00,VWS V14.01,2013-11-22 14:13:00,
2013-11-22 08:14:00,38.9,37.0,30.35,NNW,333,14.0,23.0,93,0.07,,---,0.34,7.00,VWS V14.01,2013-11-22 14:14:00,
2013-11-22 08:17:00,38.9,37.0,30.35,NNW,342,9.0,23.0,93,0.07,,---,0.34,7.00,VWS V14.01,2013-11-22 14:17:00,
2013-11-22 08:18:00,38.9,37.0,30.35,NNW,347,7.0,23.0,93,0.07,,---,0.34,7.00,VWS V14.01,2013-11-22 14:18:00,
2013-11-22 08:20:00,38.9,37.0,30.35,North,7,10.0,23.0,93,0.07,,---,0.34,7.00,VWS V14.01,2013-11-22 14:20:00,
2013-11-22 08:21:00,38.9,37.0,30.35,NW,326,9.0,23.0,93,0.07,,---,0.34,7.00,VWS V14.01,2013-11-22 14:21:00,
2013-11-22 08:22:00,38.9,37.0,30.35,NNW,344,8.0,23.0,93,0.07,,---,0.34,7.00,VWS V14.01,2013-11-22 14:22:00,
2013-11-22 08:23:00,38.9,37.0,30.35,North,360,9.0,23.0,93,0.07,,---,0.34,7.00,VWS V14.01,2013-11-22 14:23:00,
2013-11-22 08:24:00,38.9,37.0,30.35,North,2,9.0,23.0,93,0.07,,---,0.34,9.00,VWS V14.01,2013-11-22 14:24:00,
2013-11-22 08:25:00,38.9,37.0,30.35,NNW,348,8.0,23.0,93,0.07,,---,0.34,9.00,VWS V14.01,2013-11-22 14:25:00,
2013-11-22 08:26:00,38.9,37.0,30.35,North,8,6.0,23.0,93,0.07,,---,0.34,9.00,VWS V14.01,2013-11-22 14:26:00,
2013-11-22 08:27:00,38.9,37.0,30.35,NNW,336,5.0,23.0,93,0.07,,---,0.34,9.00,VWS V14.01,2013-11-22 14:27:00,
2013-11-22 08:29:00,39.0,37.2,30.35,North,349,10.0,23.0,93,0.07,,---,0.34,9.00,VWS V14.01,2013-11-22 14:29:00,
2013-11-22 08:30:00,39.0,37.2,30.36,NNW,346,4.0,23.0,93,0.07,,---,0.34,9.00,VWS V14.01,2013-11-22 14:30:00,
2013-11-22 08:31:00,39.0,37.2,30.35,North,350,8.0,10.0,93,0.07,,---,0.34,9.00,VWS V14.01,2013-11-22 14:31:00,
2013-11-22 08:33:00,39.0,37.2,30.35,NNE,12,10.0,13.0,93,0.08,,---,0.35,12.00,VWS V14.01,2013-11-22 14:33:00,
2013-11-22 08:37:00,38.9,37.0,30.36,NNW,344,9.0,18.0,93,0.08,,---,0.35,11.00,VWS V14.01,2013-11-22 14:37:00,
2013-11-22 08:38:00,38.9,37.0,30.36,North,353,8.0,18.0,93,0.08,,---,0.35,14.00,VWS V14.01,2013-11-22 14:38:00,
2013-11-22 08:39:00,38.9,37.0,30.36,NNW,334,11.0,18.0,93,0.08,,---,0.35,14.00,VWS V14.01,2013-11-22 14:39:00,
2013-11-22 08:40:00,38.9,37.0,30.36,North,4,8.0,18.0,93,0.08,,---,0.35,14.00,VWS V14.01,2013-11-22 14:40:00,
2013-11-22 08:42:00,38.8,37.0,30.35,North,4,9.0,18.0,93,0.08,,---,0.35,16.00,VWS V14.01,2013-11-22 14:42:00,
2013-11-22 08:43:00,38.8,37.0,30.36,North,359,7.0,18.0,93,0.10,,---,0.37,16.00,VWS V14.01,2013-11-22 14:43:00,
2013-11-22 08:44:00,38.8,37.0,30.36,North,7,10.0,18.0,93,0.11,,---,0.38,18.00,VWS V14.01,2013-11-22 14:44:00,
2013-11-22 08:45:00,38.8,37.0,30.36,North,4,14.0,18.0,93,0.12,,---,0.39,21.00,VWS V14.01,2013-11-22 14:45:00,
2013-11-22 08:46:00,38.8,37.0,30.35,NNW,335,8.0,18.0,93,0.13,,---,0.40,19.00,VWS V14.01,2013-11-22 14:46:00,
2013-11-22 08:47:00,38.8,37.0,30.35,North,353,9.0,18.0,93,0.13,,---,0.40,19.00,VWS V14.01,2013-11-22 14:47:00,
2013-11-22 08:50:00,38.8,37.0,30.36,North,352,5.0,18.0,93,0.14,,---,0.41,23.00,VWS V14.01,2013-11-22 14:50:00,
2013-11-22 08:51:00,38.8,37.0,30.36,NNW,332,4.0,18.0,93,0.15,,---,0.42,21.00,VWS V14.01,2013-11-22 14:51:00,
2013-11-22 08:53:00,38.8,37.0,30.36,NNE,22,10.0,18.0,93,0.15,,---,0.42,21.00,VWS V14.01,2013-11-22 14:53:00,
2013-11-22 08:55:00,38.8,37.0,30.36,North,349,8.0,18.0,93,0.15,,---,0.42,21.00,VWS V14.01,2013-11-22 14:55:00,
2013-11-22 08:56:00,38.7,36.8,30.36,NNW,332,8.0,18.0,93,0.15,,---,0.42,19.00,VWS V14.01,2013-11-22 14:56:00,
2013-11-22 08:58:00,38.7,36.8,30.36,North,1,7.0,18.0,93,0.15,,---,0.42,21.00,VWS V14.01,2013-11-22 14:58:00,
2013-11-22 09:00:00,38.7,36.8,30.37,NNW,335,10.0,18.0,93,0.15,,---,0.42,21.00,VWS V14.01,2013-11-22 15:00:00,
2013-11-22 09:01:00,38.7,36.8,30.37,North,9,10.0,18.0,93,0.15,,---,0.42,19.00,VWS V14.01,2013-11-22 15:01:00,
2013-11-22 09:02:00,38.7,36.8,30.37,NNW,335,8.0,15.0,93,0.08,,---,0.42,16.00,VWS V14.01,2013-11-22 15:02:00,
2013-11-22 09:03:00,38.7,36.8,30.37,NNW,345,12.0,15.0,93,0.08,,---,0.42,18.00,VWS V14.01,2013-11-22 15:03:00,
2013-11-22 09:06:00,38.7,36.8,30.38,NW,312,4.0,15.0,93,0.09,,---,0.43,23.00,VWS V14.01,2013-11-22 15:06:00,
2013-11-22 09:07:00,38.7,36.8,30.38,North,359,10.0,17.0,93,0.09,,---,0.43,19.00,VWS V14.01,2013-11-22 15:07:00,
2013-11-22 09:10:00,38.7,36.8,30.38,North,2,9.0,17.0,93,0.10,,---,0.44,19.00,VWS V14.01,2013-11-22 15:10:00,
2013-11-22 09:11:00,38.6,36.8,30.38,NNW,332,14.0,17.0,93,0.10,,---,0.44,18.00,VWS V14.01,2013-11-22 15:11:00,
2013-11-22 09:12:00,38.5,36.7,30.38,NNW,340,13.0,17.0,93,0.10,,---,0.44,21.00,VWS V14.01,2013-11-22 15:12:00,
2013-11-22 09:14:00,38.5,36.7,30.39,NNW,330,18.0,18.0,93,0.11,,---,0.45,19.00,VWS V14.01,2013-11-22 15:14:00,
2013-11-22 09:16:00,38.4,36.6,30.39,NW,320,11.0,18.0,93,0.11,,---,0.45,18.00,VWS V14.01,2013-11-22 15:16:00,
2013-11-22 09:18:00,38.5,36.7,30.39,NW,322,7.0,18.0,93,0.12,,---,0.46,21.00,VWS V14.01,2013-11-22 15:18:00,
2013-11-22 09:19:00,38.4,36.6,30.39,North,353,6.0,18.0,93,0.14,,---,0.48,19.00,VWS V14.01,2013-11-22 15:19:00,
2013-11-22 09:20:00,38.4,36.6,30.38,NNW,341,7.0,18.0,93,0.14,,---,0.48,19.00,VWS V14.01,2013-11-22 15:20:00,
2013-11-22 09:21:00,38.4,36.6,30.38,North,4,10.0,18.0,93,0.14,,---,0.48,25.00,VWS V14.01,2013-11-22 15:21:00,
2013-11-22 09:23:00,38.4,36.6,30.39,NW,307,12.0,18.0,93,0.15,,---,0.49,21.00,VWS V14.01,2013-11-22 15:23:00,
2013-11-22 09:24:00,38.3,36.5,30.38,North,359,10.0,18.0,93,0.15,,---,0.49,21.00,VWS V14.01,2013-11-22 15:24:00,
2013-11-22 09:25:00,38.3,36.5,30.38,NNW,346,9.0,18.0,93,0.16,,---,0.50,19.00,VWS V14.01,2013-11-22 15:25:00,
2013-11-22 09:28:00,38.2,36.4,30.38,NNE,19,7.0,18.0,93,0.16,,---,0.50,25.00,VWS V14.01,2013-11-22 15:28:00,
2013-11-22 09:30:00,38.2,36.4,30.38,North,355,8.0,18.0,93,0.17,,---,0.51,30.00,VWS V14.01,2013-11-22 15:30:00,
2013-11-22 09:31:00,38.2,36.4,30.38,North,9,8.0,9.0,93,0.17,,---,0.51,26.00,VWS V14.01,2013-11-22 15:31:00,
2013-11-22 09:32:00,38.2,36.4,30.38,NE,39,11.0,11.0,93,0.18,,---,0.52,23.00,VWS V14.01,2013-11-22 15:32:00,
2013-11-22 09:33:00,38.2,36.4,30.38,NNW,340,12.0,12.0,93,0.18,,---,0.52,23.00,VWS V14.01,2013-11-22 15:33:00,
2013-11-22 09:35:00,38.2,36.4,30.38,North,1,5.0,12.0,93,0.21,,---,0.55,23.00,VWS V14.01,2013-11-22 15:35:00,
2013-11-22 09:37:00,38.2,36.4,30.38,NNW,347,7.0,15.0,93,0.24,,---,0.58,26.00,VWS V14.01,2013-11-22 15:37:00,
2013-11-22 09:38:00,38.1,36.3,30.38,NW,325,10.0,16.0,93,0.25,,---,0.59,21.00,VWS V14.01,2013-11-22 15:38:00,
2013-11-22 09:39:00,38.0,36.2,30.38,NNW,339,5.0,16.0,93,0.26,,---,0.60,21.00,VWS V14.01,2013-11-22 15:39:00,
2013-11-22 09:40:00,38.0,36.2,30.38,North,351,8.0,16.0,93,0.26,,---,0.60,21.00,VWS V14.01,2013-11-22 15:40:00,
2013-11-22 09:42:00,37.9,36.1,30.39,NNW,335,10.0,16.0,93,0.26,,---,0.60,19.00,VWS V14.01,2013-11-22 15:42:00,
2013-11-22 09:43:00,37.9,36.1,30.39,NNW,338,9.0,16.0,93,0.26,,---,0.60,18.00,VWS V14.01,2013-11-22 15:43:00,
2013-11-22 09:45:00,38.0,36.2,30.39,NNW,345,11.0,16.0,93,0.27,,---,0.61,18.00,VWS V14.01,2013-11-22 15:45:00,
2013-11-22 09:46:00,38.0,36.2,30.39,NNW,341,5.0,16.0,93,0.27,,---,0.61,19.00,VWS V14.01,2013-11-22 15:46:00,
2013-11-22 09:48:00,38.0,36.2,30.39,NNW,331,7.0,16.0,93,0.27,,---,0.61,28.00,VWS V14.01,2013-11-22 15:48:00,
2013-11-22 09:49:00,38.0,36.2,30.39,North,351,6.0,16.0,93,0.27,,---,0.61,39.00,VWS V14.01,2013-11-22 15:49:00,
2013-11-22 09:52:00,38.0,36.2,30.39,NNW,330,5.0,17.0,93,0.27,,---,0.61,53.00,VWS V14.01,2013-11-22 15:52:00,
2013-11-22 09:53:00,38.1,36.3,30.39,NW,324,10.0,17.0,93,0.27,,---,0.61,49.00,VWS V14.01,2013-11-22 15:53:00,
2013-11-22 09:54:00,38.1,36.3,30.39,NNW,343,7.0,17.0,93,0.27,,---,0.61,49.00,VWS V14.01,2013-11-22 15:54:00,
2013-11-22 09:55:00,38.1,36.3,30.39,NNW,335,4.0,17.0,93,0.27,,---,0.61,49.00,VWS V14.01,2013-11-22 15:55:00,
2013-11-22 09:58:00,38.2,36.4,30.38,North,10,14.0,17.0,93,0.27,,---,0.61,46.00,VWS V14.01,2013-11-22 15:58:00,
2013-11-22 10:00:00,38.1,36.3,30.38,North,349,10.0,17.0,93,0.27,,---,0.61,37.00,VWS V14.01,2013-11-22 16:00:00,
2013-11-22 10:01:00,38.1,36.3,30.39,NNW,341,7.0,7.0,93,0.19,,---,0.61,37.00,VWS V14.01,2013-11-22 16:01:00,
2013-11-22 10:05:00,38.1,36.3,30.39,NW,324,10.0,16.0,93,0.19,,---,0.61,26.00,VWS V14.01,2013-11-22 16:05:00,
2013-11-22 10:07:00,38.1,36.3,30.38,NNW,347,8.0,19.0,93,0.19,,---,0.61,44.00,VWS V14.01,2013-11-22 16:07:00,
2013-11-22 10:08:00,38.1,36.3,30.38,NNW,337,10.0,19.0,93,0.19,,---,0.61,44.00,VWS V14.01,2013-11-22 16:08:00,
2013-11-22 10:09:00,38.1,36.3,30.38,North,349,11.0,19.0,93,0.19,,---,0.61,46.00,VWS V14.01,2013-11-22 16:09:00,
2013-11-22 10:11:00,38.1,36.3,30.39,NNW,330,7.0,19.0,93,0.19,,---,0.61,46.00,VWS V14.01,2013-11-22 16:11:00,
2013-11-22 10:12:00,38.1,36.0,30.39,North,359,15.0,21.0,93,0.17,,,0.61,46,weatherlink.com 1.10,2013-11-22 16:12:00,
2013-11-22 10:14:00,38.2,36.1,30.39,North,4,9.0,19.0,92,0.20,,---,0.62,49.00,VWS V14.01,2013-11-22 16:14:00,
2013-11-22 10:16:00,38.2,36.4,30.39,North,349,10.0,19.0,93,0.20,,---,0.62,47.00,VWS V14.01,2013-11-22 16:16:00,
2013-11-22 10:17:00,38.2,36.1,30.38,North,356,15.0,19.0,92,0.20,,---,0.62,49.00,VWS V14.01,2013-11-22 16:17:00,
2013-11-22 10:18:00,38.1,36.0,30.38,NNW,344,12.0,19.0,92,0.20,,---,0.62,51.00,VWS V14.01,2013-11-22 16:18:00,
2013-11-22 10:19:00,38.1,36.0,30.38,North,8,13.0,19.0,92,0.20,,---,0.62,49.00,VWS V14.01,2013-11-22 16:19:00,
2013-11-22 10:22:00,38.2,36.1,30.39,NNE,12,8.0,19.0,92,0.20,,---,0.62,44.00,VWS V14.01,2013-11-22 16:22:00,
2013-11-22 10:23:00,38.2,36.1,30.38,NNW,327,13.0,19.0,92,0.20,,---,0.62,51.00,VWS V14.01,2013-11-22 16:23:00,
2013-11-22 10:24:00,38.1,36.0,30.38,North,3,12.0,19.0,92,0.20,,---,0.62,51.00,VWS V14.01,2013-11-22 16:24:00,
2013-11-22 10:25:00,38.1,36.0,30.39,NNW,342,10.0,20.0,92,0.20,,---,0.62,60.00,VWS V14.01,2013-11-22 16:25:00,
2013-11-22 10:26:00,38.1,36.0,30.38,NW,312,11.0,20.0,92,0.20,,---,0.62,72.00,VWS V14.01,2013-11-22 16:26:00,
2013-11-22 10:28:00,38.2,36.1,30.38,NNE,17,12.0,20.0,92,0.20,,---,0.62,107.00,VWS V14.01,2013-11-22 16:28:00,
2013-11-22 10:30:00,38.3,36.2,30.38,NNW,332,7.0,20.0,92,0.20,,---,0.62,153.00,VWS V14.01,2013-11-22 16:30:00,
2013-11-22 10:31:00,38.4,36.3,30.38,NNW,337,4.0,20.0,92,0.20,,---,0.62,144.00,VWS V14.01,2013-11-22 16:31:00,
2013-11-22 10:32:00,38.5,36.4,30.38,North,357,8.0,12.0,92,0.11,,---,0.62,118.00,VWS V14.01,2013-11-22 16:32:00,
2013-11-22 10:33:00,38.4,36.3,30.38,North,7,10.0,13.0,92,0.11,,---,0.62,86.00,VWS V14.01,2013-11-22 16:33:00,
2013-11-22 10:35:00,38.5,36.4,30.38,NNW,348,6.0,13.0,92,0.11,,---,0.62,62.00,VWS V14.01,2013-11-22 16:35:00,
2013-11-22 10:36:00,38.5,36.4,30.38,NNW,341,5.0,13.0,92,0.11,,---,0.62,58.00,VWS V14.01,2013-11-22 16:36:00,
2013-11-22 10:38:00,38.5,36.4,30.38,NW,326,12.0,13.0,92,0.11,,---,0.62,58.00,VWS V14.01,2013-11-22 16:38:00,
2013-11-22 10:39:00,38.5,36.4,30.38,North,350,6.0,13.0,92,0.11,,---,0.62,58.00,VWS V14.01,2013-11-22 16:39:00,
2013-11-22 10:40:00,38.6,36.5,30.38,NW,314,10.0,13.0,92,0.11,,---,0.62,56.00,VWS V14.01,2013-11-22 16:40:00,
2013-11-22 10:42:00,38.5,36.4,30.38,NNW,335,20.0,20.0,92,0.11,,---,0.62,74.00,VWS V14.01,2013-11-22 16:42:00,
2013-11-22 10:44:00,38.4,36.3,30.38,NNW,343,8.0,20.0,92,0.11,,---,0.62,77.00,VWS V14.01,2013-11-22 16:44:00,
2013-11-22 10:45:00,38.4,36.0,30.38,NNW,348,15.0,19.0,92,0.01,,,0.62,72,weatherlink.com 1.10,2013-11-22 16:45:00,
2013-11-22 10:46:00,38.4,36.3,30.38,NNW,343,9.0,20.0,92,0.11,,---,0.62,72.00,VWS V14.01,2013-11-22 16:46:00,
2013-11-22 10:50:00,38.4,36.3,30.39,NW,324,6.0,20.0,92,0.11,,---,0.62,113.00,VWS V14.01,2013-11-22 16:50:00,
2013-11-22 10:51:00,38.4,36.3,30.39,NNE,14,11.0,20.0,92,0.11,,---,0.62,128.00,VWS V14.01,2013-11-22 16:51:00,
2013-11-22 10:53:00,38.5,36.1,30.39,NNW,345,11.0,20.0,91,0.11,,---,0.62,135.00,VWS V14.01,2013-11-22 16:53:00,
2013-11-22 10:55:00,38.6,36.5,30.39,North,359,17.0,20.0,92,0.11,,---,0.62,139.00,VWS V14.01,2013-11-22 16:55:00,
2013-11-22 10:56:00,38.6,36.5,30.39,North,2,8.0,20.0,92,0.11,,---,0.62,155.00,VWS V14.01,2013-11-22 16:56:00,
2013-11-22 10:58:00,38.7,36.6,30.39,North,5,8.0,20.0,92,0.11,,---,0.62,146.00,VWS V14.01,2013-11-22 16:58:00,
2013-11-22 11:01:00,38.6,36.2,30.39,NNW,342,8.0,20.0,91,0.11,,---,0.62,116.00,VWS V14.01,2013-11-22 17:01:00,
2013-11-22 11:02:00,38.7,36.3,30.39,NW,315,13.0,14.0,91,0.01,,---,0.62,114.00,VWS V14.01,2013-11-22 17:02:00,
2013-11-22 11:04:00,38.7,36.3,30.39,NNW,340,7.0,14.0,91,0.01,,---,0.62,102.00,VWS V14.01,2013-11-22 17:04:00,
2013-11-22 11:05:00,38.7,36.3,30.39,NNW,328,9.0,14.0,91,0.01,,---,0.62,105.00,VWS V14.01,2013-11-22 17:05:00,
2013-11-22 11:06:00,38.7,36.3,30.40,North,354,9.0,14.0,91,0.01,,---,0.62,102.00,VWS V14.01,2013-11-22 17:06:00,
2013-11-22 11:09:00,38.8,36.4,30.40,North,360,5.0,14.0,91,0.01,,---,0.62,91.00,VWS V14.01,2013-11-22 17:09:00,
2013-11-22 11:10:00,38.8,36.4,30.40,North,353,7.0,14.0,91,0.01,,---,0.62,62.00,VWS V14.01,2013-11-22 17:10:00,
2013-11-22 11:11:00,38.8,36.4,30.40,NNW,345,6.0,14.0,91,0.01,,---,0.62,54.00,VWS V14.01,2013-11-22 17:11:00,
2013-11-22 11:14:00,38.7,36.3,30.39,North,350,8.0,14.0,91,0.01,,---,0.62,70.00,VWS V14.01,2013-11-22 17:14:00,
2013-11-22 11:15:00,38.8,36.4,30.39,North,359,8.0,14.0,91,0.01,,---,0.62,79.00,VWS V14.01,2013-11-22 17:15:00,
2013-11-22 11:17:00,38.8,36.7,30.40,North,349,8.0,14.0,92,0.01,,---,0.62,83.00,VWS V14.01,2013-11-22 17:17:00,
2013-11-22 11:18:00,38.7,36.3,30.39,NNW,331,5.0,14.0,91,0.01,,---,0.62,76.00,VWS V14.01,2013-11-22 17:18:00,
2013-11-22 11:20:00,38.8,37.0,30.39,NNW,330,12.0,13.0,92,0.00,,,0.62,70,weatherlink.com 1.10,2013-11-22 17:20:00,
2013-11-22 11:21:00,38.8,36.7,30.39,NNW,341,9.0,14.0,92,0.01,,---,0.62,69.00,VWS V14.01,2013-11-22 17:21:00,
2013-11-22 11:23:00,38.8,36.7,30.39,North,353,10.0,17.0,92,0.01,,---,0.62,72.00,VWS V14.01,2013-11-22 17:23:00,
2013-11-22 11:24:00,38.7,36.6,30.39,NNW,334,9.0,17.0,92,0.01,,---,0.62,70.00,VWS V14.01,2013-11-22 17:24:00,
2013-11-22 11:28:00,38.4,36.0,30.39,North,10,9.0,17.0,91,0.01,,---,0.62,65.00,VWS V14.01,2013-11-22 17:28:00,
2013-11-22 11:29:00,38.4,36.0,30.39,NNW,330,12.0,17.0,91,0.01,,---,0.62,69.00,VWS V14.01,2013-11-22 17:29:00,
2013-11-22 11:30:00,38.4,36.0,30.39,NW,326,12.0,17.0,91,0.01,,---,0.62,69.00,VWS V14.01,2013-11-22 17:30:00,
2013-11-22 11:32:00,38.4,36.0,30.39,North,353,12.0,14.0,91,0.00,,---,0.62,76.00,VWS V14.01,2013-11-22 17:32:00,
2013-11-22 11:34:00,38.4,36.0,30.39,NNW,335,9.0,14.0,91,0.00,,---,0.62,91.00,VWS V14.01,2013-11-22 17:34:00,
2013-11-22 11:35:00,38.4,36.0,30.39,NNW,340,7.0,15.0,91,0.00,,---,0.62,77.00,VWS V14.01,2013-11-22 17:35:00,
2013-11-22 11:36:00,38.5,36.1,30.39,North,351,7.0,15.0,91,0.00,,---,0.62,83.00,VWS V14.01,2013-11-22 17:36:00,
2013-11-22 11:37:00,38.5,36.1,30.38,NNW,344,12.0,15.0,91,0.00,,---,0.62,76.00,VWS V14.01,2013-11-22 17:37:00,
2013-11-22 11:38:00,38.5,36.1,30.38,North,350,9.0,15.0,91,0.00,,---,0.62,70.00,VWS V14.01,2013-11-22 17:38:00,
2013-11-22 11:40:00,38.5,36.4,30.38,NNW,330,3.0,15.0,92,0.00,,---,0.62,65.00,VWS V14.01,2013-11-22 17:40:00,
2013-11-22 11:43:00,38.5,36.1,30.38,NNW,335,7.0,16.0,91,0.00,,---,0.62,74.00,VWS V14.01,2013-11-22 17:43:00,
2013-11-22 11:44:00,38.5,36.1,30.38,NNW,338,6.0,16.0,91,0.00,,---,0.62,76.00,VWS V14.01,2013-11-22 17:44:00,
2013-11-22 11:45:00,38.5,36.1,30.38,North,352,6.0,16.0,91,0.00,,---,0.62,74.00,VWS V14.01,2013-11-22 17:45:00,
2013-11-22 11:48:00,38.5,36.1,30.38,NW,316,7.0,16.0,91,0.00,,---,0.62,84.00,VWS V14.01,2013-11-22 17:48:00,
2013-11-22 11:50:00,38.4,36.0,30.38,NNW,333,8.0,16.0,91,0.00,,---,0.62,86.00,VWS V14.01,2013-11-22 17:50:00,
2013-11-22 11:52:00,38.4,36.0,30.38,North,358,14.0,16.0,91,0.00,,---,0.62,79.00,VWS V14.01,2013-11-22 17:52:00,
2013-11-22 11:53:00,38.4,36.0,30.38,North,356,7.0,16.0,91,0.00,,---,0.62,81.00,VWS V14.01,2013-11-22 17:53:00,
2013-11-22 11:56:00,38.3,35.9,30.38,NNW,344,3.0,16.0,91,0.00,,---,0.62,72.00,VWS V14.01,2013-11-22 17:56:00,
2013-11-22 11:57:00,38.4,36.0,30.38,North,352,9.0,16.0,91,0.00,,---,0.62,74.00,VWS V14.01,2013-11-22 17:57:00,
2013-11-22 11:58:00,38.4,36.0,30.39,NW,326,12.0,16.0,91,0.00,,---,0.62,76.00,VWS V14.01,2013-11-22 17:58:00,
2013-11-22 12:00:00,38.3,35.6,30.39,North,8,8.0,17.0,90,0.00,,---,0.62,72.00,VWS V14.01,2013-11-22 18:00:00,
2013-11-22 12:01:00,38.2,35.5,30.39,NW,324,6.0,17.0,90,0.00,,---,0.62,74.00,VWS V14.01,2013-11-22 18:01:00,
2013-11-22 12:02:00,38.2,35.5,30.39,NNW,336,6.0,14.0,90,0.00,,---,0.62,76.00,VWS V14.01,2013-11-22 18:02:00,
2013-11-22 12:03:00,38.2,35.5,30.39,NW,325,10.0,14.0,90,0.00,,---,0.62,74.00,VWS V14.01,2013-11-22 18:03:00,
2013-11-22 12:04:00,38.2,35.5,30.38,NNW,338,7.0,14.0,90,0.00,,---,0.62,62.00,VWS V14.01,2013-11-22 18:04:00,
2013-11-22 12:06:00,38.0,35.3,30.38,NW,321,17.0,17.0,90,0.00,,---,0.62,54.00,VWS V14.01,2013-11-22 18:06:00,
2013-11-22 12:08:00,38.0,35.3,30.38,NNW,332,8.0,17.0,90,0.00,,---,0.62,63.00,VWS V14.01,2013-11-22 18:08:00,
2013-11-22 12:10:00,38.1,35.7,30.38,NW,323,5.0,17.0,91,0.00,,---,0.62,65.00,VWS V14.01,2013-11-22 18:10:00,
2013-11-22 12:11:00,38.1,35.7,30.38,North,357,7.0,17.0,91,0.00,,---,0.62,69.00,VWS V14.01,2013-11-22 18:11:00,
2013-11-22 12:13:00,38.0,36.0,30.38,NNW,343,8.0,17.0,91,0.00,,,0.62,79,weatherlink.com 1.10,2013-11-22 18:13:00,
2013-11-22 12:14:00,38.0,35.3,30.38,North,358,9.0,17.0,90,0.00,,---,0.62,93.00,VWS V14.01,2013-11-22 18:14:00,
2013-11-22 12:17:00,38.0,35.6,30.38,North,357,12.0,17.0,91,0.00,,---,0.62,88.00,VWS V14.01,2013-11-22 18:17:00,
2013-11-22 12:18:00,37.9,35.2,30.39,NW,326,11.0,17.0,90,0.00,,---,0.62,81.00,VWS V14.01,2013-11-22 18:18:00,
2013-11-22 12:19:00,37.9,35.2,30.39,North,1,7.0,17.0,90,0.00,,---,0.62,83.00,VWS V14.01,2013-11-22 18:19:00,
2013-11-22 12:22:00,37.9,35.2,30.38,NNW,329,8.0,17.0,90,0.00,,---,0.62,102.00,VWS V14.01,2013-11-22 18:22:00,
2013-11-22 12:24:00,38.0,35.6,30.38,NW,315,11.0,17.0,91,0.00,,---,0.62,63.00,VWS V14.01,2013-11-22 18:24:00,
2013-11-22 12:25:00,38.0,35.6,30.38,NNW,343,13.0,17.0,91,0.00,,---,0.62,63.00,VWS V14.01,2013-11-22 18:25:00,
2013-11-22 12:26:00,38.0,35.6,30.38,WNW,301,8.0,17.0,91,0.00,,---,0.62,60.00,VWS V14.01,2013-11-22 18:26:00,
2013-11-22 12:29:00,38.0,35.6,30.38,NNW,341,13.0,17.0,91,0.00,,---,0.62,72.00,VWS V14.01,2013-11-22 18:29:00,
2013-11-22 12:30:00,37.9,35.5,30.38,NNW,345,7.0,17.0,91,0.00,,---,0.62,72.00,VWS V14.01,2013-11-22 18:30:00,
2013-11-22 12:31:00,37.9,35.5,30.38,NNW,328,9.0,17.0,91,0.00,,---,0.62,72.00,VWS V14.01,2013-11-22 18:31:00,
2013-11-22 12:32:00,37.9,35.5,30.37,NNE,15,10.0,13.0,91,0.00,,---,0.62,70.00,VWS V14.01,2013-11-22 18:32:00,
2013-11-22 12:33:00,37.9,35.5,30.37,North,357,7.0,13.0,91,0.00,,---,0.62,65.00,VWS V14.01,2013-11-22 18:33:00,
2013-11-22 12:35:00,37.9,35.5,30.38,NNW,345,9.0,16.0,91,0.00,,---,0.62,58.00,VWS V14.01,2013-11-22 18:35:00,
2013-11-22 12:36:00,37.9,35.5,30.38,NNW,339,10.0,16.0,91,0.00,,---,0.62,56.00,VWS V14.01,2013-11-22 18:36:00,
2013-11-22 12:38:00,37.9,35.5,30.39,NNW,341,10.0,16.0,91,0.00,,---,0.62,49.00,VWS V14.01,2013-11-22 18:38:00,
2013-11-22 12:39:00,37.8,35.4,30.39,NNW,347,7.0,16.0,91,0.00,,---,0.62,54.00,VWS V14.01,2013-11-22 18:39:00,
2013-11-22 12:41:00,37.8,35.4,30.38,NNW,330,5.0,16.0,91,0.00,,---,0.62,60.00,VWS V14.01,2013-11-22 18:41:00,
2013-11-22 12:42:00,37.8,35.4,30.38,NNW,337,4.0,16.0,91,0.00,,---,0.62,69.00,VWS V14.01,2013-11-22 18:42:00,
2013-11-22 12:44:00,37.8,35.4,30.38,NNW,333,5.0,16.0,91,0.00,,---,0.62,74.00,VWS V14.01,2013-11-22 18:44:00,
2013-11-22 12:47:00,37.6,35.2,30.38,NNW,336,6.0,16.0,91,0.00,,---,0.62,88.00,VWS V14.01,2013-11-22 18:47:00,
2013-11-22 12:48:00,37.6,35.2,30.38,NNW,343,13.0,16.0,91,0.00,,---,0.62,84.00,VWS V14.01,2013-11-22 18:48:00,
2013-11-22 12:49:00,37.6,35.2,30.38,NW,314,8.0,17.0,91,0.00,,---,0.62,76.00,VWS V14.01,2013-11-22 18:49:00,
2013-11-22 12:51:00,37.6,35.2,30.38,WNW,295,5.0,17.0,91,0.00,,---,0.62,76.00,VWS V14.01,2013-11-22 18:51:00,
2013-11-22 12:53:00,37.6,35.2,30.38,NNW,348,7.0,17.0,91,0.00,,---,0.62,67.00,VWS V14.01,2013-11-22 18:53:00,
2013-11-22 12:54:00,37.7,35.3,30.38,NW,307,11.0,17.0,91,0.00,,---,0.62,58.00,VWS V14.01,2013-11-22 18:54:00,
2013-11-22 12:55:00,37.7,35.3,30.38,NW,325,12.0,17.0,91,0.00,,---,0.62,51.00,VWS V14.01,2013-11-22 18:55:00,
2013-11-22 12:56:00,37.7,35.3,30.38,North,355,5.0,17.0,91,0.00,,---,0.62,49.00,VWS V14.01,2013-11-22 18:56:00,
2013-11-22 13:00:00,37.7,35.3,30.38,NNW,330,5.0,17.0,91,0.00,,---,0.62,49.00,VWS V14.01,2013-11-22 19:00:00,
2013-11-22 13:01:00,37.6,35.2,30.38,North,357,6.0,17.0,91,0.00,,---,0.62,54.00,VWS V14.01,2013-11-22 19:01:00,
2013-11-22 13:02:00,37.7,35.3,30.37,North,353,9.0,12.0,91,0.00,,---,0.62,54.00,VWS V14.01,2013-11-22 19:02:00,
2013-11-22 13:03:00,37.7,35.3,30.37,NNW,347,6.0,12.0,91,0.00,,---,0.62,74.00,VWS V14.01,2013-11-22 19:03:00,
2013-11-22 13:04:00,37.7,35.3,30.37,NNW,337,6.0,12.0,91,0.00,,---,0.62,76.00,VWS V14.01,2013-11-22 19:04:00,
2013-11-22 13:06:00,37.7,35.3,30.37,North,356,13.0,13.0,91,0.00,,---,0.62,83.00,VWS V14.01,2013-11-22 19:06:00,
2013-11-22 13:08:00,37.6,35.2,30.37,NW,315,14.0,14.0,91,0.00,,---,0.62,114.00,VWS V14.01,2013-11-22 19:08:00,
2013-11-22 13:09:00,37.6,35.2,30.37,NNW,347,12.0,14.0,91,0.00,,---,0.62,109.00,VWS V14.01,2013-11-22 19:09:00,
2013-11-22 13:12:00,37.5,35.1,30.37,North,353,10.0,15.0,91,0.00,,---,0.62,63.00,VWS V14.01,2013-11-22 19:12:00,
2013-11-22 13:13:00,37.5,35.1,30.37,NNW,333,5.0,15.0,91,0.00,,---,0.62,63.00,VWS V14.01,2013-11-22 19:13:00,
2013-11-22 13:14:00,37.5,35.1,30.37,NNW,338,7.0,17.0,91,0.00,,---,0.62,49.00,VWS V14.01,2013-11-22 19:14:00,
2013-11-22 13:15:00,37.5,34.8,30.37,NNW,347,4.0,17.0,90,0.00,,---,0.62,53.00,VWS V14.01,2013-11-22 19:15:00,
2013-11-22 13:19:00,37.5,34.8,30.37,North,354,10.0,17.0,90,0.00,,---,0.62,60.00,VWS V14.01,2013-11-22 19:19:00,
2013-11-22 13:20:00,37.4,34.7,30.36,NNW,330,5.0,17.0,90,0.00,,---,0.62,63.00,VWS V14.01,2013-11-22 19:20:00,
2013-11-22 13:21:00,37.4,34.7,30.36,NW,319,12.0,17.0,90,0.00,,---,0.62,69.00,VWS V14.01,2013-11-22 19:21:00,
2013-11-22 13:22:00,37.4,34.7,30.36,NW,311,10.0,17.0,90,0.00,,---,0.62,77.00,VWS V14.01,2013-11-22 19:22:00,
2013-11-22 13:24:00,37.4,34.7,30.36,NNW,334,10.0,17.0,90,0.00,,---,0.62,84.00,VWS V14.01,2013-11-22 19:24:00,
2013-11-22 13:26:00,37.3,34.6,30.36,North,353,10.0,20.0,90,0.00,,---,0.62,91.00,VWS V14.01,2013-11-22 19:26:00,
2013-11-22 13:27:00,37.4,34.7,30.36,North,360,9.0,20.0,90,0.00,,---,0.62,114.00,VWS V14.01,2013-11-22 19:27:00,
2013-11-22 13:30:00,37.5,34.8,30.36,North,349,8.0,20.0,90,0.00,,---,0.62,105.00,VWS V14.01,2013-11-22 19:30:00,
2013-11-22 13:32:00,37.5,34.8,30.36,NNW,328,9.0,19.0,90,0.00,,---,0.62,111.00,VWS V14.01,2013-11-22 19:32:00,
2013-11-22 13:33:00,37.5,34.6,30.37,North,1,6.0,19.0,89,0.00,,---,0.62,109.00,VWS V14.01,2013-11-22 19:33:00,
2013-11-22 13:34:00,37.5,34.6,30.37,NNW,334,17.0,19.0,89,0.00,,---,0.62,109.00,VWS V14.01,2013-11-22 19:34:00,
2013-11-22 13:36:00,37.4,34.5,30.36,North,8,12.0,19.0,89,0.00,,---,0.62,118.00,VWS V14.01,2013-11-22 19:36:00,
2013-11-22 13:38:00,37.4,34.5,30.36,North,353,9.0,19.0,89,0.00,,---,0.62,121.00,VWS V14.01,2013-11-22 19:38:00,
2013-11-22 13:39:00,37.5,35.0,30.36,NNW,347,9.0,22.0,89,0.00,,,0.62,127,weatherlink.com 1.10,2013-11-22 19:39:00,
2013-11-22 13:42:00,37.6,34.7,30.36,NNW,347,14.0,20.0,89,0.00,,---,0.62,127.00,VWS V14.01,2013-11-22 19:42:00,
2013-11-22 13:44:00,37.6,34.7,30.36,NNW,337,7.0,20.0,89,0.00,,---,0.62,135.00,VWS V14.01,2013-11-22 19:44:00,
2013-11-22 13:46:00,37.6,34.7,30.35,NNW,342,11.0,20.0,89,0.00,,---,0.62,104.00,VWS V14.01,2013-11-22 19:46:00,
2013-11-22 13:47:00,37.6,34.7,30.35,NNW,330,17.0,25.0,89,0.00,,---,0.62,95.00,VWS V14.01,2013-11-22 19:47:00,
2013-11-22 13:48:00,37.6,34.7,30.35,NNW,346,9.0,25.0,89,0.00,,---,0.62,90.00,VWS V14.01,2013-11-22 19:48:00,
2013-11-22 13:49:00,37.6,34.7,30.35,NNW,329,6.0,25.0,89,0.00,,---,0.62,90.00,VWS V14.01,2013-11-22 19:49:00,
2013-11-22 13:51:00,37.6,34.7,30.35,NNW,347,12.0,25.0,89,0.00,,---,0.62,79.00,VWS V14.01,2013-11-22 19:51:00,
2013-11-22 13:52:00,37.6,34.7,30.35,NNW,345,10.0,25.0,89,0.00,,---,0.62,79.00,VWS V14.01,2013-11-22 19:52:00,
2013-11-22 13:53:00,37.6,34.7,30.35,NW,323,6.0,25.0,89,0.00,,---,0.62,81.00,VWS V14.01,2013-11-22 19:53:00,
2013-11-22 13:54:00,37.6,34.7,30.35,NW,312,7.0,25.0,89,0.00,,---,0.62,76.00,VWS V14.01,2013-11-22 19:54:00,
2013-11-22 13:55:00,37.7,34.8,30.35,NW,326,10.0,25.0,89,0.00,,---,0.62,77.00,VWS V14.01,2013-11-22 19:55:00,
2013-11-22 13:57:00,37.7,34.8,30.35,NNW,347,12.0,25.0,89,0.00,,---,0.62,79.00,VWS V14.01,2013-11-22 19:57:00,
2013-11-22 13:58:00,37.7,34.8,30.35,NNW,345,14.0,25.0,89,0.00,,---,0.62,74.00,VWS V14.01,2013-11-22 19:58:00,
2013-11-22 13:59:00,37.7,34.8,30.35,NNW,330,9.0,25.0,89,0.00,,---,0.62,72.00,VWS V14.01,2013-11-22 19:59:00,
2013-11-22 14:01:00,37.5,34.6,30.35,NNW,328,6.0,25.0,89,0.00,,---,0.62,65.00,VWS V14.01,2013-11-22 20:01:00,
2013-11-22 14:04:00,37.4,34.5,30.35,NNW,332,9.0,18.0,89,0.00,,---,0.62,70.00,VWS V14.01,2013-11-22 20:04:00,
2013-11-22 14:05:00,37.4,34.5,30.35,NW,312,14.0,18.0,89,0.00,,---,0.62,81.00,VWS V14.01,2013-11-22 20:05:00,
2013-11-22 14:06:00,37.3,34.4,30.35,North,351,11.0,18.0,89,0.00,,---,0.62,81.00,VWS V14.01,2013-11-22 20:06:00,
2013-11-22 14:07:00,37.3,34.4,30.34,NW,323,17.0,24.0,89,0.00,,---,0.62,91.00,VWS V14.01,2013-11-22 20:07:00,
2013-11-22 14:11:00,37.3,34.4,30.35,NNW,332,14.0,24.0,89,0.00,,---,0.62,81.00,VWS V14.01,2013-11-22 20:11:00,
2013-11-22 14:12:00,37.3,34.4,30.35,NNW,345,8.0,24.0,89,0.00,,---,0.62,83.00,VWS V14.01,2013-11-22 20:12:00,
2013-11-22 14:13:00,37.4,34.5,30.35,NNW,335,11.0,24.0,89,0.00,,---,0.62,84.00,VWS V14.01,2013-11-22 20:13:00,
2013-11-22 14:15:00,37.4,34.5,30.35,North,1,8.0,24.0,89,0.00,,---,0.62,88.00,VWS V14.01,2013-11-22 20:15:00,
2013-11-22 14:17:00,37.4,34.5,30.35,NNW,341,7.0,24.0,89,0.00,,---,0.62,58.00,VWS V14.01,2013-11-22 20:17:00,
2013-11-22 14:18:00,37.5,34.6,30.35,North,349,6.0,24.0,89,0.00,,---,0.62,58.00,VWS V14.01,2013-11-22 20:18:00,
2013-11-22 14:20:00,37.4,34.7,30.35,NNW,334,10.0,24.0,90,0.00,,---,0.62,47.00,VWS V14.01,2013-11-22 20:20:00,
2013-11-22 14:21:00,37.4,34.7,30.35,NNW,327,12.0,24.0,90,0.00,,---,0.62,46.00,VWS V14.01,2013-11-22 20:21:00,
2013-11-22 14:24:00,37.3,34.6,30.35,North,349,8.0,24.0,90,0.00,,---,0.62,46.00,VWS V14.01,2013-11-22 20:24:00,
2013-11-22 14:25:00,37.3,34.6,30.35,North,353,9.0,24.0,90,0.00,,---,0.62,51.00,VWS V14.01,2013-11-22 20:25:00,
2013-11-22 14:26:00,37.3,34.6,30.36,North,6,6.0,24.0,90,0.00,,---,0.62,60.00,VWS V14.01,2013-11-22 20:26:00,
2013-11-22 14:28:00,37.3,34.6,30.36,NNW,346,7.0,24.0,90,0.00,,---,0.62,60.00,VWS V14.01,2013-11-22 20:28:00,
2013-11-22 14:29:00,37.3,34.6,30.36,NNW,336,6.0,24.0,90,0.00,,---,0.62,53.00,VWS V14.01,2013-11-22 20:29:00,
2013-11-22 14:30:00,37.3,34.6,30.35,NNW,341,5.0,24.0,90,0.00,,---,0.62,49.00,VWS V14.01,2013-11-22 20:30:00,
2013-11-22 14:31:00,37.3,34.6,30.35,NW,312,6.0,9.0,90,0.00,,---,0.62,40.00,VWS V14.01,2013-11-22 20:31:00,
2013-11-22 14:33:00,37.4,35.0,30.35,NW,320,11.0,14.0,91,0.00,,---,0.62,35.00,VWS V14.01,2013-11-22 20:33:00,
2013-11-22 14:34:00,37.3,34.6,30.35,NW,310,7.0,14.0,90,0.00,,---,0.62,35.00,VWS V14.01,2013-11-22 20:34:00,
2013-11-22 14:35:00,37.3,34.6,30.35,WNW,300,10.0,14.0,90,0.00,,---,0.62,35.00,VWS V14.01,2013-11-22 20:35:00,
2013-11-22 14:36:00,37.3,34.6,30.35,NNW,343,9.0,17.0,90,0.00,,---,0.62,37.00,VWS V14.01,2013-11-22 20:36:00,
2013-11-22 14:38:00,37.1,34.4,30.35,WNW,289,11.0,17.0,90,0.00,,---,0.62,35.00,VWS V14.01,2013-11-22 20:38:00,
2013-11-22 14:41:00,37.0,34.3,30.35,NW,307,11.0,17.0,90,0.00,,---,0.62,35.00,VWS V14.01,2013-11-22 20:41:00,
2013-11-22 14:42:00,36.9,34.2,30.36,North,2,6.0,17.0,90,0.00,,---,0.62,33.00,VWS V14.01,2013-11-22 20:42:00,
2013-11-22 14:43:00,36.8,34.2,30.36,NNW,337,6.0,17.0,90,0.00,,---,0.62,33.00,VWS V14.01,2013-11-22 20:43:00,
2013-11-22 14:44:00,36.8,34.2,30.36,NW,317,10.0,17.0,90,0.00,,---,0.62,33.00,VWS V14.01,2013-11-22 20:44:00,
2013-11-22 14:48:00,36.8,34.2,30.36,NNW,347,4.0,17.0,90,0.00,,---,0.62,42.00,VWS V14.01,2013-11-22 20:48:00,
2013-11-22 14:49:00,36.9,34.2,30.36,NNW,341,5.0,17.0,90,0.00,,---,0.62,42.00,VWS V14.01,2013-11-22 20:49:00,
2013-11-22 14:50:00,36.9,34.5,30.36,NW,305,3.0,17.0,91,0.00,,---,0.62,51.00,VWS V14.01,2013-11-22 20:50:00,
2013-11-22 14:54:00,37.0,34.6,30.36,North,351,9.0,18.0,91,0.00,,---,0.62,69.00,VWS V14.01,2013-11-22 20:54:00,
2013-11-22 14:55:00,37.0,34.6,30.36,NW,316,12.0,18.0,91,0.00,,---,0.62,77.00,VWS V14.01,2013-11-22 20:55:00,
2013-11-22 14:56:00,37.0,34.6,30.35,NW,307,8.0,18.0,91,0.00,,---,0.62,65.00,VWS V14.01,2013-11-22 20:56:00,
2013-11-22 14:58:00,37.0,34.6,30.35,WNW,297,9.0,18.0,91,0.00,,---,0.62,51.00,VWS V14.01,2013-11-22 20:58:00,
2013-11-22 14:59:00,37.0,34.3,30.35,North,11,14.0,18.0,90,0.00,,---,0.62,42.00,VWS V14.01,2013-11-22 20:59:00,
2013-11-22 15:01:00,37.0,34.6,30.36,NNW,343,11.0,15.0,91,0.00,,---,0.62,44.00,VWS V14.01,2013-11-22 21:01:00,
2013-11-22 15:02:00,37.0,34.3,30.36,North,353,9.0,15.0,90,0.00,,---,0.62,44.00,VWS V14.01,2013-11-22 21:02:00,
2013-11-22 15:03:00,37.0,34.3,30.35,North,359,8.0,15.0,90,0.00,,---,0.62,37.00,VWS V14.01,2013-11-22 21:03:00,
2013-11-22 15:06:00,37.0,34.3,30.35,North,353,8.0,15.0,90,0.00,,---,0.62,28.00,VWS V14.01,2013-11-22 21:06:00,
2013-11-22 15:07:00,36.9,34.2,30.35,NNW,330,9.0,18.0,90,0.00,,---,0.62,26.00,VWS V14.01,2013-11-22 21:07:00,
2013-11-22 15:09:00,37.0,34.3,30.35,North,359,8.0,18.0,90,0.00,,---,0.62,21.00,VWS V14.01,2013-11-22 21:09:00,
2013-11-22 15:12:00,36.7,34.0,30.35,North,349,9.0,21.0,90,0.00,,---,0.62,25.00,VWS V14.01,2013-11-22 21:12:00,
2013-11-22 15:13:00,36.7,34.0,30.35,NNW,339,14.0,21.0,90,0.00,,---,0.62,26.00,VWS V14.01,2013-11-22 21:13:00,
2013-11-22 15:15:00,36.6,34.0,30.35,North,9,11.0,21.0,90,0.00,,---,0.62,30.00,VWS V14.01,2013-11-22 21:15:00,
2013-11-22 15:16:00,36.6,34.0,30.35,NNW,336,5.0,21.0,90,0.00,,---,0.62,35.00,VWS V14.01,2013-11-22 21:16:00,
2013-11-22 15:17:00,36.6,34.0,30.35,North,355,18.0,21.0,90,0.00,,---,0.62,39.00,VWS V14.01,2013-11-22 21:17:00,
2013-11-22 15:18:00,36.6,34.0,30.35,NNW,345,17.0,23.0,90,0.00,,---,0.62,46.00,VWS V14.01,2013-11-22 21:18:00,
2013-11-22 15:19:00,36.5,33.8,30.35,North,360,16.0,23.0,90,0.00,,---,0.62,47.00,VWS V14.01,2013-11-22 21:19:00,
2013-11-22 15:22:00,36.5,33.8,30.35,North,2,9.0,23.0,90,0.00,,---,0.62,51.00,VWS V14.01,2013-11-22 21:22:00,
2013-11-22 15:23:00,36.6,34.0,30.35,North,4,11.0,22.0,90,0.00,,,0.62,49,weatherlink.com 1.10,2013-11-22 21:23:00,
2013-11-22 15:26:00,36.6,34.2,30.35,NNW,327,8.0,23.0,91,0.00,,---,0.62,30.00,VWS V14.01,2013-11-22 21:26:00,
2013-11-22 15:28:00,36.7,34.3,30.36,NW,326,7.0,23.0,91,0.00,,---,0.62,25.00,VWS V14.01,2013-11-22 21:28:00,
2013-11-22 15:30:00,36.6,34.2,30.36,NNW,328,8.0,23.0,91,0.00,,---,0.62,21.00,VWS V14.01,2013-11-22 21:30:00,
2013-11-22 15:31:00,36.6,34.2,30.36,NNW,331,14.0,23.0,91,0.00,,---,0.62,21.00,VWS V14.01,2013-11-22 21:31:00,
2013-11-22 15:32:00,36.6,34.2,30.36,NNW,336,9.0,14.0,91,0.00,,---,0.62,19.00,VWS V14.01,2013-11-22 21:32:00,
2013-11-22 15:33:00,36.6,34.2,30.36,North,5,8.0,14.0,91,0.00,,---,0.62,19.00,VWS V14.01,2013-11-22 21:33:00,
2013-11-22 15:36:00,36.5,34.1,30.36,North,3,12.0,18.0,91,0.00,,---,0.62,25.00,VWS V14.01,2013-11-22 21:36:00,
2013-11-22 15:37:00,36.4,34.0,30.36,WNW,301,13.0,18.0,91,0.00,,---,0.62,25.00,VWS V14.01,2013-11-22 21:37:00,
2013-11-22 15:38:00,36.4,34.0,30.36,NNW,339,12.0,18.0,91,0.00,,---,0.62,23.00,VWS V14.01,2013-11-22 21:38:00,
2013-11-22 15:40:00,36.3,33.9,30.36,NNW,337,11.0,19.0,91,0.00,,---,0.62,21.00,VWS V14.01,2013-11-22 21:40:00,
2013-11-22 15:41:00,36.3,33.9,30.36,NW,305,5.0,19.0,91,0.00,,---,0.62,18.00,VWS V14.01,2013-11-22 21:41:00,
2013-11-22 15:43:00,36.3,33.9,30.36,North,355,12.0,19.0,91,0.00,,---,0.62,18.00,VWS V14.01,2013-11-22 21:43:00,
2013-11-22 15:44:00,36.3,33.9,30.36,NNW,345,15.0,19.0,91,0.00,,---,0.62,14.00,VWS V14.01,2013-11-22 21:44:00,
2013-11-22 15:47:00,36.3,33.9,30.36,NNW,335,7.0,19.0,91,0.00,,---,0.62,14.00,VWS V14.01,2013-11-22 21:47:00,
2013-11-22 15:48:00,36.3,33.9,30.36,NNW,334,6.0,19.0,91,0.00,,---,0.62,11.00,VWS V14.01,2013-11-22 21:48:00,
2013-11-22 15:50:00,36.3,33.9,30.36,NW,307,10.0,19.0,91,0.00,,---,0.62,9.00,VWS V14.01,2013-11-22 21:50:00,
2013-11-22 15:51:00,36.3,33.9,30.37,NW,322,10.0,19.0,91,0.00,,---,0.62,9.00,VWS V14.01,2013-11-22 21:51:00,
2013-11-22 15:54:00,36.3,33.9,30.37,NNW,332,8.0,19.0,91,0.00,,---,0.62,11.00,VWS V14.01,2013-11-22 21:54:00,
2013-11-22 15:55:00,36.3,33.9,30.37,NW,325,10.0,19.0,91,0.00,,---,0.62,12.00,VWS V14.01,2013-11-22 21:55:00,
2013-11-22 15:56:00,36.3,33.9,30.37,North,351,10.0,19.0,91,0.00,,---,0.62,11.00,VWS V14.01,2013-11-22 21:56:00,
2013-11-22 15:57:00,36.3,33.9,30.37,North,4,7.0,19.0,91,0.00,,---,0.62,12.00,VWS V14.01,2013-11-22 21:57:00,
2013-11-22 15:58:00,36.2,33.8,30.37,NNW,348,12.0,19.0,91,0.00,,---,0.62,12.00,VWS V14.01,2013-11-22 21:58:00,
2013-11-22 15:59:00,36.2,33.8,30.37,NNW,345,8.0,19.0,91,0.00,,---,0.62,14.00,VWS V14.01,2013-11-22 21:59:00,
2013-11-22 16:01:00,36.2,33.8,30.36,WNW,298,12.0,19.0,91,0.00,,---,0.62,18.00,VWS V14.01,2013-11-22 22:01:00,
2013-11-22 16:03:00,36.1,33.7,30.37,North,6,15.0,19.0,91,0.00,,---,0.62,19.00,VWS V14.01,2013-11-22 22:03:00,
2013-11-22 16:04:00,36.1,33.7,30.37,NNW,345,8.0,19.0,91,0.00,,---,0.62,19.00,VWS V14.01,2013-11-22 22:04:00,
2013-11-22 16:06:00,36.1,33.7,30.37,NNW,346,7.0,19.0,91,0.00,,---,0.62,18.00,VWS V14.01,2013-11-22 22:06:00,
2013-11-22 16:07:00,36.1,33.7,30.37,NNW,341,4.0,19.0,91,0.00,,---,0.62,18.00,VWS V14.01,2013-11-22 22:07:00,
2013-11-22 16:09:00,36.1,33.7,30.37,NNW,336,13.0,19.0,91,0.00,,---,0.62,18.00,VWS V14.01,2013-11-22 22:09:00,
2013-11-22 16:10:00,36.1,33.7,30.37,NW,314,11.0,19.0,91,0.00,,---,0.62,19.00,VWS V14.01,2013-11-22 22:10:00,
2013-11-22 16:11:00,36.1,33.7,30.37,North,5,10.0,19.0,91,0.00,,---,0.62,19.00,VWS V14.01,2013-11-22 22:11:00,
2013-11-22 16:12:00,36.1,33.7,30.37,North,357,8.0,19.0,91,0.00,,---,0.62,18.00,VWS V14.01,2013-11-22 22:12:00,
2013-11-22 16:13:00,36.1,33.7,30.37,NNW,337,11.0,19.0,91,0.00,,---,0.62,18.00,VWS V14.01,2013-11-22 22:13:00,
2013-11-22 16:14:00,36.1,33.7,30.37,NW,326,12.0,19.0,91,0.00,,---,0.62,19.00,VWS V14.01,2013-11-22 22:14:00,
2013-11-22 16:18:00,36.2,33.8,30.37,NNW,339,10.0,19.0,91,0.00,,---,0.62,16.00,VWS V14.01,2013-11-22 22:18:00,
2013-11-22 16:19:00,36.2,33.6,30.37,NW,320,12.0,19.0,90,0.00,,---,0.62,14.00,VWS V14.01,2013-11-22 22:19:00,
2013-11-22 16:20:00,36.2,33.6,30.37,North,357,13.0,19.0,90,0.00,,---,0.62,16.00,VWS V14.01,2013-11-22 22:20:00,
2013-11-22 16:21:00,36.2,33.6,30.36,NNW,342,16.0,21.0,90,0.00,,---,0.62,16.00,VWS V14.01,2013-11-22 22:21:00,
2013-11-22 16:22:00,36.2,33.6,30.36,North,355,9.0,21.0,90,0.00,,---,0.62,16.00,VWS V14.01,2013-11-22 22:22:00,
2013-11-22 16:24:00,36.2,33.6,30.37,North,352,9.0,21.0,90,0.00,,---,0.62,12.00,VWS V14.01,2013-11-22 22:24:00,
2013-11-22 16:25:00,36.3,33.7,30.37,North,350,10.0,21.0,90,0.00,,---,0.62,12.00,VWS V14.01,2013-11-22 22:25:00,
2013-11-22 16:27:00,36.3,33.7,30.37,NW,319,15.0,21.0,90,0.00,,---,0.62,12.00,VWS V14.01,2013-11-22 22:27:00,
2013-11-22 16:29:00,36.3,33.7,30.38,North,349,8.0,21.0,90,0.00,,---,0.62,9.00,VWS V14.01,2013-11-22 22:29:00,
2013-11-22 16:31:00,36.4,33.8,30.38,North,353,7.0,21.0,90,0.00,,---,0.62,7.00,VWS V14.01,2013-11-22 22:31:00,
2013-11-22 16:32:00,36.4,33.8,30.38,NW,326,10.0,11.0,90,0.00,,---,0.62,5.00,VWS V14.01,2013-11-22 22:32:00,
2013-11-22 16:33:00,36.4,33.8,30.39,NNW,340,6.0,11.0,90,0.00,,---,0.62,5.00,VWS V14.01,2013-11-22 22:33:00,
2013-11-22 16:36:00,36.5,33.8,30.39,NNW,338,4.0,16.0,90,0.00,,---,0.62,5.00,VWS V14.01,2013-11-22 22:36:00,
2013-11-22 16:37:00,36.5,33.8,30.39,North,4,8.0,16.0,90,0.00,,---,0.62,5.00,VWS V14.01,2013-11-22 22:37:00,
2013-11-22 16:38:00,36.5,33.8,30.39,NNW,341,5.0,16.0,90,0.00,,---,0.62,0.00,VWS V14.01,2013-11-22 22:38:00,
2013-11-22 16:39:00,36.5,33.8,30.39,NNW,343,10.0,16.0,90,0.00,,---,0.62,0.00,VWS V14.01,2013-11-22 22:39:00,
2013-11-22 16:42:00,36.6,34.0,30.39,NNW,337,5.0,16.0,90,0.00,,---,0.62,0.00,VWS V14.01,2013-11-22 22:42:00,
2013-11-22 16:43:00,36.6,34.0,30.39,North,9,4.0,16.0,90,0.00,,---,0.62,0.00,VWS V14.01,2013-11-22 22:43:00,
2013-11-22 16:44:00,36.7,34.0,30.39,North,351,10.0,16.0,90,0.00,,---,0.62,0.00,VWS V14.01,2013-11-22 22:44:00,
2013-11-22 16:45:00,36.7,34.0,30.39,North,355,9.0,16.0,90,0.00,,---,0.62,0.00,VWS V14.01,2013-11-22 22:45:00,
2013-11-22 16:47:00,36.7,34.0,30.39,North,351,6.0,18.0,90,0.00,,---,0.62,0.00,VWS V14.01,2013-11-22 22:47:00,
2013-11-22 16:48:00,36.7,34.0,30.39,North,353,5.0,18.0,90,0.00,,---,0.62,0.00,VWS V14.01,2013-11-22 22:48:00,
2013-11-22 16:49:00,36.7,34.0,30.39,NNW,339,8.0,18.0,90,0.00,,---,0.62,0.00,VWS V14.01,2013-11-22 22:49:00,
2013-11-22 16:51:00,36.7,34.0,30.39,North,355,9.0,18.0,90,0.00,,---,0.62,0.00,VWS V14.01,2013-11-22 22:51:00,
2013-11-22 16:54:00,36.7,34.0,30.39,NNW,330,9.0,18.0,90,0.00,,---,0.62,0.00,VWS V14.01,2013-11-22 22:54:00,
2013-11-22 16:56:00,36.7,34.0,30.39,NNW,346,8.0,18.0,90,0.00,,---,0.62,0.00,VWS V14.01,2013-11-22 22:56:00,
2013-11-22 16:57:00,36.7,34.0,30.39,NNW,346,4.0,18.0,90,0.00,,---,0.62,0.00,VWS V14.01,2013-11-22 22:57:00,
2013-11-22 16:59:00,36.8,34.2,30.39,NNW,329,17.0,18.0,90,0.00,,---,0.62,0.00,VWS V14.01,2013-11-22 22:59:00,
2013-11-22 17:01:00,36.7,34.0,30.40,NNW,331,7.0,21.0,90,0.00,,---,0.62,0.00,VWS V14.01,2013-11-22 23:01:00,
2013-11-22 17:02:00,36.7,34.0,30.40,NNW,339,9.0,13.0,90,0.00,,---,0.62,0.00,VWS V14.01,2013-11-22 23:02:00,
2013-11-22 17:05:00,36.7,34.0,30.40,NNW,332,13.0,16.0,90,0.00,,---,0.62,0.00,VWS V14.01,2013-11-22 23:05:00,
2013-11-22 17:06:00,36.7,34.0,30.39,North,357,10.0,17.0,90,0.00,,---,0.62,0.00,VWS V14.01,2013-11-22 23:06:00,
2013-11-22 17:07:00,36.7,34.0,30.39,North,351,10.0,17.0,90,0.00,,---,0.62,0.00,VWS V14.01,2013-11-22 23:07:00,
2013-11-22 17:09:00,36.7,34.0,30.38,North,355,7.0,18.0,90,0.00,,---,0.62,0.00,VWS V14.01,2013-11-22 23:09:00,
2013-11-22 17:10:00,36.6,34.0,30.38,NNW,332,8.0,18.0,90,0.00,,---,0.62,0.00,VWS V14.01,2013-11-22 23:10:00,
2013-11-22 17:11:00,36.7,34.0,30.38,NNW,345,10.0,18.0,90,0.00,,---,0.62,0.00,VWS V14.01,2013-11-22 23:11:00,
2013-11-22 17:12:00,36.7,34.0,30.38,NNW,335,9.0,18.0,90,0.00,,---,0.62,0.00,VWS V14.01,2013-11-22 23:12:00,
2013-11-22 17:13:00,36.7,34.0,30.38,NNW,343,6.0,18.0,90,0.00,,---,0.62,0.00,VWS V14.01,2013-11-22 23:13:00,
2013-11-22 17:14:00,36.6,34.0,30.38,NW,326,9.0,18.0,90,0.00,,---,0.62,0.00,VWS V14.01,2013-11-22 23:14:00,
2013-11-22 17:15:00,36.6,34.0,30.38,NW,324,11.0,18.0,90,0.00,,---,0.62,0.00,VWS V14.01,2013-11-22 23:15:00,
2013-11-22 17:17:00,36.5,33.8,30.38,NW,326,10.0,21.0,90,0.00,,---,0.62,0.00,VWS V14.01,2013-11-22 23:17:00,
2013-11-22 17:18:00,36.5,33.8,30.38,NNW,336,9.0,21.0,90,0.00,,---,0.62,0.00,VWS V14.01,2013-11-22 23:18:00,
2013-11-22 17:19:00,36.5,33.8,30.38,North,351,11.0,21.0,90,0.00,,---,0.62,0.00,VWS V14.01,2013-11-22 23:19:00,
2013-11-22 17:21:00,36.4,33.8,30.38,NNW,339,6.0,21.0,90,0.00,,---,0.62,0.00,VWS V14.01,2013-11-22 23:21:00,
2013-11-22 17:24:00,36.4,34.0,30.38,North,349,8.0,21.0,91,0.00,,---,0.62,0.00,VWS V14.01,2013-11-22 23:24:00,
2013-11-22 17:25:00,36.3,33.9,30.38,NNW,337,6.0,21.0,91,0.00,,---,0.62,0.00,VWS V14.01,2013-11-22 23:25:00,
2013-11-22 17:29:00,36.2,33.8,30.38,North,349,12.0,21.0,91,0.01,,---,0.63,0.00,VWS V14.01,2013-11-22 23:29:00,
2013-11-22 17:30:00,36.2,33.8,30.38,North,360,7.0,21.0,91,0.01,,---,0.63,0.00,VWS V14.01,2013-11-22 23:30:00,
2013-11-22 17:31:00,36.2,33.8,30.38,North,10,6.0,21.0,91,0.01,,---,0.63,0.00,VWS V14.01,2013-11-22 23:31:00,
2013-11-22 17:32:00,36.2,33.8,30.38,NNW,327,14.0,14.0,91,0.01,,---,0.63,0.00,VWS V14.01,2013-11-22 23:32:00,
2013-11-22 17:34:00,36.1,34.0,30.38,NNW,339,7.0,20.0,92,0.01,,---,0.63,0.00,VWS V14.01,2013-11-22 23:34:00,
2013-11-22 17:35:00,36.1,34.0,30.38,NNW,329,7.0,20.0,92,0.01,,---,0.63,0.00,VWS V14.01,2013-11-22 23:35:00,
2013-11-22 17:37:00,36.0,33.9,30.37,North,357,11.0,20.0,92,0.01,,---,0.63,0.00,VWS V14.01,2013-11-22 23:37:00,
2013-11-22 17:38:00,36.0,33.9,30.37,NNW,347,6.0,20.0,92,0.01,,---,0.63,0.00,VWS V14.01,2013-11-22 23:38:00,
2013-11-22 17:41:00,36.0,33.9,30.38,NNW,339,5.0,20.0,92,0.01,,---,0.63,0.00,VWS V14.01,2013-11-22 23:41:00,
2013-11-22 17:42:00,36.0,34.0,30.38,North,354,8.0,18.0,92,0.01,,,0.63,0,weatherlink.com 1.10,2013-11-22 23:42:00,
2013-11-22 17:44:00,36.0,33.9,30.38,WNW,297,10.0,20.0,92,0.01,,---,0.63,0.00,VWS V14.01,2013-11-22 23:44:00,
2013-11-22 17:46:00,36.0,33.9,30.39,NNW,343,8.0,20.0,92,0.01,,---,0.63,0.00,VWS V14.01,2013-11-22 23:46:00,
2013-11-22 17:47:00,36.0,33.9,30.39,North,352,8.0,20.0,92,0.01,,---,0.63,0.00,VWS V14.01,2013-11-22 23:47:00,
2013-11-22 17:49:00,35.9,33.8,30.40,NW,315,5.0,20.0,92,0.01,,---,0.63,0.00,VWS V14.01,2013-11-22 23:49:00,
2013-11-22 17:50:00,36.0,34.2,30.40,NW,320,19.0,20.0,93,0.01,,---,0.63,0.00,VWS V14.01,2013-11-22 23:50:00,
2013-11-22 17:51:00,36.0,34.2,30.40,NNW,336,8.0,20.0,93,0.01,,---,0.63,0.00,VWS V14.01,2013-11-22 23:51:00,
2013-11-22 17:52:00,36.0,33.9,30.40,NNW,347,2.0,20.0,92,0.01,,---,0.63,0.00,VWS V14.01,2013-11-22 23:52:00,
2013-11-22 17:53:00,36.0,33.9,30.40,NNW,338,6.0,20.0,92,0.01,,---,0.63,0.00,VWS V14.01,2013-11-22 23:53:00,
2013-11-22 17:54:00,36.0,33.9,30.40,NNW,346,8.0,20.0,92,0.01,,---,0.63,0.00,VWS V14.01,2013-11-22 23:54:00,
2013-11-22 17:56:00,36.0,33.9,30.40,NNW,330,3.0,20.0,92,0.01,,---,0.63,0.00,VWS V14.01,2013-11-22 23:56:00,
2013-11-22 17:58:00,36.0,34.0,30.40,NNW,332,7.0,16.0,92,0.01,,,0.63,0,weatherlink.com 1.10,2013-11-22 23:58:00,
2013-11-22 18:01:00,36.0,34.2,30.40,WNW,292,8.0,20.0,93,0.01,,---,0.63,0.00,VWS V14.01,2013-11-23 00:01:00,
2013-11-22 18:03:00,36.0,33.9,30.40,North,6,15.0,16.0,92,0.01,,---,0.63,0.00,VWS V14.01,2013-11-23 00:03:00,
2013-11-22 18:04:00,36.1,34.0,30.40,NNW,347,10.0,16.0,92,0.01,,---,0.63,0.00,VWS V14.01,2013-11-23 00:04:00,
2013-11-22 18:06:00,36.1,34.0,30.39,North,4,7.0,16.0,92,0.01,,---,0.63,0.00,VWS V14.01,2013-11-23 00:06:00,
2013-11-22 18:08:00,36.1,34.0,30.39,NW,307,9.0,19.0,92,0.01,,---,0.63,0.00,VWS V14.01,2013-11-23 00:08:00,
2013-11-22 18:09:00,36.1,34.0,30.39,North,349,14.0,19.0,92,0.01,,---,0.63,0.00,VWS V14.01,2013-11-23 00:09:00,
2013-11-22 18:10:00,36.0,33.9,30.40,North,359,8.0,19.0,92,0.01,,---,0.63,0.00,VWS V14.01,2013-11-23 00:10:00,
2013-11-22 18:11:00,36.0,33.9,30.40,NNW,341,6.0,19.0,92,0.01,,---,0.63,0.00,VWS V14.01,2013-11-23 00:11:00,
2013-11-22 18:12:00,36.0,33.9,30.40,NNW,332,7.0,19.0,92,0.01,,---,0.63,0.00,VWS V14.01,2013-11-23 00:12:00,
2013-11-22 18:14:00,36.0,33.9,30.41,NW,324,9.0,19.0,92,0.01,,---,0.63,0.00,VWS V14.01,2013-11-23 00:14:00,
2013-11-22 18:15:00,36.0,33.9,30.40,NNW,337,8.0,19.0,92,0.01,,---,0.63,0.00,VWS V14.01,2013-11-23 00:15:00,
2013-11-22 18:16:00,36.0,33.9,30.41,NNW,341,9.0,19.0,92,0.01,,---,0.63,0.00,VWS V14.01,2013-11-23 00:16:00,
2013-11-22 18:17:00,36.0,33.9,30.41,NNW,347,4.0,19.0,92,0.01,,---,0.63,0.00,VWS V14.01,2013-11-23 00:17:00,
2013-11-22 18:18:00,36.0,33.9,30.41,WNW,295,7.0,19.0,92,0.01,,---,0.63,0.00,VWS V14.01,2013-11-23 00:18:00,
2013-11-22 18:21:00,36.0,33.9,30.41,NW,307,4.0,19.0,92,0.01,,---,0.63,0.00,VWS V14.01,2013-11-23 00:21:00,
2013-11-22 18:22:00,36.0,33.9,30.41,NNW,346,4.0,19.0,92,0.01,,---,0.63,0.00,VWS V14.01,2013-11-23 00:22:00,
2013-11-22 18:23:00,36.0,33.9,30.41,NNW,334,11.0,19.0,92,0.01,,---,0.63,0.00,VWS V14.01,2013-11-23 00:23:00,
2013-11-22 18:24:00,35.9,33.8,30.41,North,355,5.0,19.0,92,0.01,,---,0.63,0.00,VWS V14.01,2013-11-23 00:24:00,
2013-11-22 18:25:00,36.0,33.9,30.41,NNW,342,6.0,19.0,92,0.01,,---,0.63,0.00,VWS V14.01,2013-11-23 00:25:00,
2013-11-22 18:27:00,36.0,33.9,30.41,North,4,8.0,19.0,92,0.01,,---,0.63,0.00,VWS V14.01,2013-11-23 00:27:00,
2013-11-22 18:28:00,36.0,33.9,30.41,NNW,338,10.0,19.0,92,0.01,,---,0.63,0.00,VWS V14.01,2013-11-23 00:28:00,
2013-11-22 18:29:00,36.0,33.9,30.41,NNW,345,9.0,19.0,92,0.01,,---,0.63,0.00,VWS V14.01,2013-11-23 00:29:00,
2013-11-22 18:30:00,36.0,33.9,30.41,NNW,347,5.0,19.0,92,0.01,,---,0.63,0.00,VWS V14.01,2013-11-23 00:30:00,
2013-11-22 18:31:00,36.0,33.9,30.41,NNW,346,9.0,9.0,92,0.00,,---,0.63,0.00,VWS V14.01,2013-11-23 00:31:00,
2013-11-22 18:32:00,36.0,33.6,30.41,North,350,12.0,12.0,91,0.00,,---,0.63,0.00,VWS V14.01,2013-11-23 00:32:00,
2013-11-22 18:33:00,36.0,33.9,30.42,NNW,327,12.0,13.0,92,0.00,,---,0.63,0.00,VWS V14.01,2013-11-23 00:33:00,
2013-11-22 18:34:00,36.1,33.7,30.42,NNW,345,10.0,13.0,91,0.00,,---,0.63,0.00,VWS V14.01,2013-11-23 00:34:00,
2013-11-22 18:35:00,36.1,33.7,30.42,NW,305,10.0,13.0,91,0.01,,---,0.64,0.00,VWS V14.01,2013-11-23 00:35:00,
2013-11-22 18:36:00,36.1,33.7,30.42,NNW,344,4.0,13.0,91,0.01,,---,0.64,0.00,VWS V14.01,2013-11-23 00:36:00,
2013-11-22 18:38:00,36.1,33.7,30.41,NNW,337,12.0,13.0,91,0.03,,---,0.66,0.00,VWS V14.01,2013-11-23 00:38:00,
2013-11-22 18:39:00,36.1,33.7,30.41,North,355,15.0,15.0,91,0.03,,---,0.66,0.00,VWS V14.01,2013-11-23 00:39:00,
2013-11-22 18:41:00,36.0,33.6,30.41,NNW,335,10.0,16.0,91,0.04,,---,0.67,0.00,VWS V14.01,2013-11-23 00:41:00,
2013-11-22 18:45:00,35.9,33.5,30.41,North,350,5.0,20.0,91,0.06,,---,0.69,0.00,VWS V14.01,2013-11-23 00:45:00,
2013-11-22 18:47:00,35.9,33.5,30.41,North,7,13.0,20.0,91,0.07,,---,0.70,0.00,VWS V14.01,2013-11-23 00:47:00,
2013-11-22 18:48:00,35.9,33.5,30.41,NNW,344,11.0,20.0,91,0.07,,---,0.70,0.00,VWS V14.01,2013-11-23 00:48:00,
2013-11-22 18:50:00,35.8,33.4,30.41,NNW,339,4.0,20.0,91,0.08,,---,0.71,0.00,VWS V14.01,2013-11-23 00:50:00,
2013-11-22 18:52:00,35.9,33.5,30.41,NNW,337,13.0,20.0,91,0.08,,---,0.71,0.00,VWS V14.01,2013-11-23 00:52:00,
2013-11-22 18:53:00,35.9,33.8,30.41,NNE,14,6.0,20.0,92,0.08,,---,0.71,0.00,VWS V14.01,2013-11-23 00:53:00,
2013-11-22 18:54:00,35.9,33.8,30.41,North,352,5.0,20.0,92,0.08,,---,0.71,0.00,VWS V14.01,2013-11-23 00:54:00,
2013-11-22 18:55:00,35.9,33.8,30.41,North,354,6.0,20.0,92,0.08,,---,0.71,0.00,VWS V14.01,2013-11-23 00:55:00,
2013-11-22 18:58:00,36.0,33.9,30.41,NNW,335,7.0,20.0,92,0.08,,---,0.71,0.00,VWS V14.01,2013-11-23 00:58:00,
2013-11-22 18:59:00,36.0,33.9,30.41,NW,321,6.0,20.0,92,0.08,,---,0.71,0.00,VWS V14.01,2013-11-23 00:59:00,
2013-11-22 19:01:00,36.0,33.9,30.41,NNW,327,7.0,7.0,92,0.09,,---,0.72,0.00,VWS V14.01,2013-11-23 01:01:00,
2013-11-22 19:03:00,36.0,33.9,30.41,North,6,8.0,10.0,92,0.09,,---,0.72,0.00,VWS V14.01,2013-11-23 01:03:00,
2013-11-22 19:04:00,36.0,33.9,30.41,NW,312,4.0,13.0,92,0.09,,---,0.72,0.00,VWS V14.01,2013-11-23 01:04:00,
2013-11-22 19:06:00,36.1,34.0,30.41,NNW,334,7.0,13.0,92,0.09,,---,0.72,0.00,VWS V14.01,2013-11-23 01:06:00,
2013-11-22 19:07:00,36.0,33.9,30.42,NW,309,4.0,13.0,92,0.09,,---,0.72,0.00,VWS V14.01,2013-11-23 01:07:00,
2013-11-22 19:08:00,36.1,34.0,30.42,NW,307,4.0,13.0,92,0.09,,---,0.72,0.00,VWS V14.01,2013-11-23 01:08:00,
2013-11-22 19:09:00,36.1,34.0,30.42,NNW,332,11.0,13.0,92,0.09,,---,0.72,0.00,VWS V14.01,2013-11-23 01:09:00,
2013-11-22 19:11:00,36.1,34.0,30.42,NNW,345,8.0,15.0,92,0.09,,---,0.72,0.00,VWS V14.01,2013-11-23 01:11:00,
2013-11-22 19:12:00,36.1,34.0,30.42,NNW,344,4.0,15.0,92,0.09,,---,0.72,0.00,VWS V14.01,2013-11-23 01:12:00,
2013-11-22 19:13:00,36.1,34.0,30.42,NNW,334,12.0,15.0,92,0.09,,---,0.72,0.00,VWS V14.01,2013-11-23 01:13:00,
2013-11-22 19:14:00,36.2,34.1,30.42,North,2,11.0,15.0,92,0.09,,---,0.72,0.00,VWS V14.01,2013-11-23 01:14:00,
2013-11-22 19:15:00,36.1,34.0,30.41,NW,322,11.0,15.0,92,0.09,,---,0.72,0.00,VWS V14.01,2013-11-23 01:15:00,
2013-11-22 19:17:00,36.1,34.0,30.42,NNW,335,5.0,15.0,92,0.09,,---,0.72,0.00,VWS V14.01,2013-11-23 01:17:00,
2013-11-22 19:19:00,36.2,34.1,30.42,NNW,335,6.0,15.0,92,0.09,,---,0.72,0.00,VWS V14.01,2013-11-23 01:19:00,
2013-11-22 19:20:00,36.2,34.1,30.42,NNW,340,8.0,15.0,92,0.09,,---,0.72,0.00,VWS V14.01,2013-11-23 01:20:00,
2013-11-22 19:24:00,36.2,34.1,30.42,NNW,341,6.0,17.0,92,0.09,,---,0.72,0.00,VWS V14.01,2013-11-23 01:24:00,
2013-11-22 19:25:00,36.2,34.1,30.42,NW,310,9.0,17.0,92,0.09,,---,0.72,0.00,VWS V14.01,2013-11-23 01:25:00,
2013-11-22 19:26:00,36.2,34.1,30.42,North,351,5.0,17.0,92,0.09,,---,0.72,0.00,VWS V14.01,2013-11-23 01:26:00,
2013-11-22 19:28:00,36.2,34.1,30.42,North,357,5.0,17.0,92,0.09,,---,0.72,0.00,VWS V14.01,2013-11-23 01:28:00,
2013-11-22 19:31:00,36.3,34.2,30.42,NNW,329,13.0,17.0,92,0.09,,---,0.72,0.00,VWS V14.01,2013-11-23 01:31:00,
2013-11-22 19:32:00,36.2,34.1,30.42,NW,315,8.0,15.0,92,0.09,,---,0.72,0.00,VWS V14.01,2013-11-23 01:32:00,
2013-11-22 19:34:00,36.3,34.2,30.42,NW,321,13.0,16.0,92,0.09,,---,0.72,0.00,VWS V14.01,2013-11-23 01:34:00,
2013-11-22 19:37:00,36.3,34.2,30.42,NW,320,10.0,16.0,92,0.09,,---,0.72,0.00,VWS V14.01,2013-11-23 01:37:00,
2013-11-22 19:38:00,36.3,34.2,30.42,North,4,9.0,16.0,92,0.09,,---,0.72,0.00,VWS V14.01,2013-11-23 01:38:00,
2013-11-22 19:40:00,36.4,34.3,30.42,NNE,16,12.0,16.0,92,0.09,,---,0.72,0.00,VWS V14.01,2013-11-23 01:40:00,
2013-11-22 19:42:00,36.4,34.3,30.42,NNW,343,9.0,18.0,92,0.09,,---,0.72,0.00,VWS V14.01,2013-11-23 01:42:00,
2013-11-22 19:43:00,36.4,34.3,30.42,North,351,10.0,18.0,92,0.09,,---,0.72,0.00,VWS V14.01,2013-11-23 01:43:00,
2013-11-22 19:44:00,36.3,34.2,30.42,NNW,334,6.0,18.0,92,0.09,,---,0.72,0.00,VWS V14.01,2013-11-23 01:44:00,
2013-11-22 19:46:00,36.4,34.3,30.42,NNW,328,4.0,18.0,92,0.09,,---,0.72,0.00,VWS V14.01,2013-11-23 01:46:00,
2013-11-22 19:49:00,36.3,34.2,30.42,North,351,12.0,18.0,92,0.09,,---,0.72,0.00,VWS V14.01,2013-11-23 01:49:00,
2013-11-22 19:50:00,36.3,34.2,30.42,North,3,10.0,18.0,92,0.09,,---,0.72,0.00,VWS V14.01,2013-11-23 01:50:00,
2013-11-22 19:51:00,36.3,34.2,30.42,NNW,344,5.0,18.0,92,0.09,,---,0.72,0.00,VWS V14.01,2013-11-23 01:51:00,
2013-11-22 19:52:00,36.3,34.2,30.42,NNW,345,8.0,18.0,92,0.09,,---,0.72,0.00,VWS V14.01,2013-11-23 01:52:00,
2013-11-22 19:53:00,36.3,34.2,30.42,North,357,9.0,18.0,92,0.09,,---,0.72,0.00,VWS V14.01,2013-11-23 01:53:00,
2013-11-22 19:55:00,36.3,34.2,30.42,NNW,345,8.0,18.0,92,0.09,,---,0.72,0.00,VWS V14.01,2013-11-23 01:55:00,
2013-11-22 19:56:00,36.3,34.2,30.42,NNW,332,4.0,18.0,92,0.09,,---,0.72,0.00,VWS V14.01,2013-11-23 01:56:00,
2013-11-22 19:58:00,36.3,34.2,30.42,North,4,5.0,18.0,92,0.09,,---,0.72,0.00,VWS V14.01,2013-11-23 01:58:00,
2013-11-22 19:59:00,36.3,34.2,30.43,North,349,9.0,18.0,92,0.09,,---,0.72,0.00,VWS V14.01,2013-11-23 01:59:00,
2013-11-22 20:00:00,36.3,34.0,30.42,NW,310,3.0,13.0,92,0.01,,,0.72,0,weatherlink.com 1.10,2013-11-23 02:00:00,
2013-11-22 20:01:00,36.3,34.2,30.42,North,349,4.0,18.0,92,0.09,,---,0.72,0.00,VWS V14.01,2013-11-23 02:01:00,
2013-11-22 20:03:00,36.3,34.2,30.42,NNW,343,6.0,13.0,92,0.01,,---,0.72,0.00,VWS V14.01,2013-11-23 02:03:00,
2013-11-22 20:05:00,36.3,34.2,30.43,NNW,345,6.0,13.0,92,0.01,,---,0.72,0.00,VWS V14.01,2013-11-23 02:05:00,
2013-11-22 20:07:00,36.3,34.2,30.42,North,352,3.0,13.0,92,0.01,,---,0.72,0.00,VWS V14.01,2013-11-23 02:07:00,
2013-11-22 20:09:00,36.3,34.2,30.42,NNW,344,12.0,13.0,92,0.01,,---,0.72,0.00,VWS V14.01,2013-11-23 02:09:00,
2013-11-22 20:10:00,36.3,34.2,30.42,North,355,6.0,13.0,92,0.01,,---,0.72,0.00,VWS V14.01,2013-11-23 02:10:00,
2013-11-22 20:12:00,36.3,34.2,30.42,North,353,9.0,13.0,92,0.01,,---,0.72,0.00,VWS V14.01,2013-11-23 02:12:00,
2013-11-22 20:14:00,36.2,34.1,30.42,NNE,16,6.0,13.0,92,0.01,,---,0.72,0.00,VWS V14.01,2013-11-23 02:14:00,
2013-11-22 20:15:00,36.2,34.1,30.42,NNW,343,9.0,13.0,92,0.01,,---,0.72,0.00,VWS V14.01,2013-11-23 02:15:00,
2013-11-22 20:17:00,36.2,34.1,30.43,NNE,15,13.0,15.0,92,0.01,,---,0.72,0.00,VWS V14.01,2013-11-23 02:17:00,
2013-11-22 20:18:00,36.2,34.1,30.43,NNW,339,3.0,15.0,92,0.01,,---,0.72,0.00,VWS V14.01,2013-11-23 02:18:00,
2013-11-22 20:21:00,36.2,34.1,30.43,NNW,343,9.0,15.0,92,0.01,,---,0.72,0.00,VWS V14.01,2013-11-23 02:21:00,
2013-11-22 20:23:00,36.3,34.2,30.43,NNW,336,6.0,15.0,92,0.01,,---,0.72,0.00,VWS V14.01,2013-11-23 02:23:00,
2013-11-22 20:25:00,36.3,34.2,30.43,NNW,333,9.0,15.0,92,0.01,,---,0.72,0.00,VWS V14.01,2013-11-23 02:25:00,
2013-11-22 20:26:00,36.3,34.2,30.43,NNW,346,6.0,15.0,92,0.01,,---,0.72,0.00,VWS V14.01,2013-11-23 02:26:00,
2013-11-22 20:27:00,36.3,34.2,30.43,NNW,332,6.0,15.0,92,0.01,,---,0.72,0.00,VWS V14.01,2013-11-23 02:27:00,
2013-11-22 20:28:00,36.3,34.2,30.43,NNW,339,8.0,15.0,92,0.01,,---,0.72,0.00,VWS V14.01,2013-11-23 02:28:00,
2013-11-22 20:29:00,36.3,34.2,30.43,North,352,9.0,15.0,92,0.01,,---,0.72,0.00,VWS V14.01,2013-11-23 02:29:00,
2013-11-22 20:31:00,36.2,34.1,30.43,NNW,337,7.0,15.0,92,0.01,,---,0.72,0.00,VWS V14.01,2013-11-23 02:31:00,
2013-11-22 20:32:00,36.2,34.4,30.43,NNW,348,6.0,8.0,93,0.00,,---,0.72,0.00,VWS V14.01,2013-11-23 02:32:00,
2013-11-22 20:34:00,36.2,34.4,30.43,NNW,344,4.0,11.0,93,0.00,,---,0.72,0.00,VWS V14.01,2013-11-23 02:34:00,
2013-11-22 20:35:00,36.2,34.0,30.43,NNW,341,4.0,11.0,93,0.00,,,0.72,0,weatherlink.com 1.10,2013-11-23 02:35:00,
2013-11-22 20:37:00,36.3,34.5,30.43,NNW,338,5.0,11.0,93,0.00,,---,0.72,0.00,VWS V14.01,2013-11-23 02:37:00,
2013-11-22 20:39:00,36.3,34.5,30.43,NNW,347,10.0,11.0,93,0.00,,---,0.72,0.00,VWS V14.01,2013-11-23 02:39:00,
2013-11-22 20:40:00,36.3,34.5,30.43,North,355,9.0,11.0,93,0.00,,---,0.72,0.00,VWS V14.01,2013-11-23 02:40:00,
2013-11-22 20:42:00,36.3,34.5,30.43,NNW,345,10.0,11.0,93,0.00,,---,0.72,0.00,VWS V14.01,2013-11-23 02:42:00,
2013-11-22 20:44:00,36.3,34.5,30.43,North,354,7.0,14.0,93,0.00,,---,0.72,0.00,VWS V14.01,2013-11-23 02:44:00,
2013-11-22 20:45:00,36.4,34.6,30.43,NNW,345,14.0,14.0,93,0.00,,---,0.72,0.00,VWS V14.01,2013-11-23 02:45:00,
2013-11-22 20:46:00,36.4,34.6,30.43,North,359,7.0,14.0,93,0.00,,---,0.72,0.00,VWS V14.01,2013-11-23 02:46:00,
2013-11-22 20:47:00,36.4,34.6,30.43,North,358,8.0,14.0,93,0.00,,---,0.72,0.00,VWS V14.01,2013-11-23 02:47:00,
2013-11-22 20:49:00,36.4,34.6,30.43,NNW,327,8.0,14.0,93,0.00,,---,0.72,0.00,VWS V14.01,2013-11-23 02:49:00,
2013-11-22 20:51:00,36.5,34.4,30.43,North,353,10.0,14.0,92,0.00,,---,0.72,0.00,VWS V14.01,2013-11-23 02:51:00,
2013-11-22 20:54:00,36.5,34.4,30.43,NNW,342,6.0,17.0,92,0.00,,---,0.72,0.00,VWS V14.01,2013-11-23 02:54:00,
2013-11-22 20:55:00,36.5,34.7,30.43,NNW,342,3.0,17.0,93,0.00,,---,0.72,0.00,VWS V14.01,2013-11-23 02:55:00,
2013-11-22 20:56:00,36.6,34.5,30.43,NNW,335,6.0,17.0,92,0.00,,---,0.72,0.00,VWS V14.01,2013-11-23 02:56:00,
2013-11-22 20:58:00,36.7,34.9,30.43,NNW,341,7.0,17.0,93,0.00,,---,0.72,0.00,VWS V14.01,2013-11-23 02:58:00,
2013-11-22 21:00:00,36.7,34.9,30.43,NNW,346,7.0,17.0,93,0.00,,---,0.72,0.00,VWS V14.01,2013-11-23 03:00:00,
2013-11-22 21:01:00,36.6,34.8,30.43,NNW,338,5.0,17.0,93,0.00,,---,0.72,0.00,VWS V14.01,2013-11-23 03:01:00,
2013-11-22 21:02:00,36.7,34.9,30.43,NNE,15,10.0,11.0,93,0.00,,---,0.72,0.00,VWS V14.01,2013-11-23 03:02:00,
2013-11-22 21:03:00,36.7,34.9,30.43,North,6,13.0,13.0,93,0.00,,---,0.72,0.00,VWS V14.01,2013-11-23 03:03:00,
2013-11-22 21:06:00,36.7,34.6,30.43,NNW,339,6.0,16.0,92,0.00,,---,0.72,0.00,VWS V14.01,2013-11-23 03:06:00,
2013-11-22 21:07:00,36.7,34.6,30.43,North,8,8.0,16.0,92,0.00,,---,0.72,0.00,VWS V14.01,2013-11-23 03:07:00,
2013-11-22 21:08:00,36.7,34.6,30.43,North,355,9.0,16.0,92,0.00,,---,0.72,0.00,VWS V14.01,2013-11-23 03:08:00,
2013-11-22 21:11:00,36.8,34.7,30.43,NNW,346,7.0,16.0,92,0.00,,---,0.72,0.00,VWS V14.01,2013-11-23 03:11:00,
2013-11-22 21:12:00,36.8,34.7,30.43,NW,322,9.0,16.0,92,0.00,,---,0.72,0.00,VWS V14.01,2013-11-23 03:12:00,
2013-11-22 21:13:00,36.8,35.0,30.43,NNW,341,7.0,16.0,93,0.00,,---,0.72,0.00,VWS V14.01,2013-11-23 03:13:00,
2013-11-22 21:14:00,36.8,35.0,30.43,NW,305,3.0,16.0,93,0.00,,---,0.72,0.00,VWS V14.01,2013-11-23 03:14:00,
2013-11-22 21:16:00,36.8,35.0,30.43,NW,321,6.0,16.0,93,0.00,,---,0.72,0.00,VWS V14.01,2013-11-23 03:16:00,
2013-11-22 21:18:00,36.7,34.9,30.43,NNW,338,9.0,16.0,93,0.00,,---,0.72,0.00,VWS V14.01,2013-11-23 03:18:00,
2013-11-22 21:19:00,36.7,34.9,30.43,NW,316,9.0,16.0,93,0.00,,---,0.72,0.00,VWS V14.01,2013-11-23 03:19:00,
2013-11-22 21:20:00,36.7,34.9,30.44,NNW,339,7.0,16.0,93,0.00,,---,0.72,0.00,VWS V14.01,2013-11-23 03:20:00,
2013-11-22 21:24:00,36.5,34.7,30.43,NNW,337,6.0,16.0,93,0.00,,---,0.72,0.00,VWS V14.01,2013-11-23 03:24:00,
2013-11-22 21:25:00,36.5,34.7,30.43,North,2,4.0,16.0,93,0.00,,---,0.72,0.00,VWS V14.01,2013-11-23 03:25:00,
2013-11-22 21:27:00,36.5,34.7,30.44,North,360,7.0,16.0,93,0.00,,---,0.72,0.00,VWS V14.01,2013-11-23 03:27:00,
2013-11-22 21:29:00,36.5,34.7,30.44,NNW,328,4.0,16.0,93,0.00,,---,0.72,0.00,VWS V14.01,2013-11-23 03:29:00,
2013-11-22 21:30:00,36.5,34.7,30.44,NW,325,4.0,16.0,93,0.00,,---,0.72,0.00,VWS V14.01,2013-11-23 03:30:00,
2013-11-22 21:31:00,36.5,34.7,30.44,North,354,4.0,5.0,93,0.00,,---,0.72,0.00,VWS V14.01,2013-11-23 03:31:00,
2013-11-22 21:33:00,36.5,34.7,30.44,NNW,342,10.0,10.0,93,0.00,,---,0.72,0.00,VWS V14.01,2013-11-23 03:33:00,
2013-11-22 21:35:00,36.4,34.6,30.44,NNW,332,4.0,12.0,93,0.00,,---,0.72,0.00,VWS V14.01,2013-11-23 03:35:00,
2013-11-22 21:37:00,36.5,34.7,30.44,NNW,342,6.0,12.0,93,0.00,,---,0.72,0.00,VWS V14.01,2013-11-23 03:37:00,
2013-11-22 21:38:00,36.4,34.6,30.44,North,351,11.0,15.0,93,0.00,,---,0.72,0.00,VWS V14.01,2013-11-23 03:38:00,
2013-11-22 21:41:00,36.4,34.6,30.44,North,350,7.0,15.0,93,0.00,,---,0.72,0.00,VWS V14.01,2013-11-23 03:41:00,
2013-11-22 21:42:00,36.4,34.6,30.44,North,349,8.0,15.0,93,0.00,,---,0.72,0.00,VWS V14.01,2013-11-23 03:42:00,
2013-11-22 21:43:00,36.5,34.7,30.44,NNW,340,6.0,15.0,93,0.00,,---,0.72,0.00,VWS V14.01,2013-11-23 03:43:00,
2013-11-22 21:44:00,36.5,34.7,30.44,North,1,8.0,15.0,93,0.00,,---,0.72,0.00,VWS V14.01,2013-11-23 03:44:00,
2013-11-22 21:45:00,36.4,34.6,30.44,NNW,337,6.0,15.0,93,0.00,,---,0.72,0.00,VWS V14.01,2013-11-23 03:45:00,
2013-11-22 21:47:00,36.5,34.7,30.44,North,360,6.0,15.0,93,0.00,,---,0.72,0.00,VWS V14.01,2013-11-23 03:47:00,
2013-11-22 21:48:00,36.5,34.7,30.44,NNW,347,6.0,15.0,93,0.00,,---,0.72,0.00,VWS V14.01,2013-11-23 03:48:00,
2013-11-22 21:49:00,36.5,34.7,30.44,NNW,341,5.0,15.0,93,0.00,,---,0.72,0.00,VWS V14.01,2013-11-23 03:49:00,
2013-11-22 21:50:00,36.5,34.7,30.44,North,349,11.0,15.0,93,0.00,,---,0.72,0.00,VWS V14.01,2013-11-23 03:50:00,
2013-11-22 21:51:00,36.5,34.7,30.44,WNW,300,4.0,15.0,93,0.00,,---,0.72,0.00,VWS V14.01,2013-11-23 03:51:00,
2013-11-22 21:53:00,36.5,34.7,30.44,NW,318,13.0,15.0,93,0.00,,---,0.72,0.00,VWS V14.01,2013-11-23 03:53:00,
2013-11-22 21:54:00,36.5,34.7,30.44,NNW,343,5.0,15.0,93,0.00,,---,0.72,0.00,VWS V14.01,2013-11-23 03:54:00,
2013-11-22 21:56:00,36.5,34.7,30.43,NNW,345,11.0,15.0,93,0.00,,---,0.72,0.00,VWS V14.01,2013-11-23 03:56:00,
2013-11-22 21:58:00,36.5,34.9,30.44,NNW,345,9.0,15.0,94,0.00,,---,0.72,0.00,VWS V14.01,2013-11-23 03:58:00,
2013-11-22 21:59:00,36.5,34.9,30.44,NNW,337,6.0,15.0,94,0.00,,---,0.72,0.00,VWS V14.01,2013-11-23 03:59:00,
2013-11-22 22:01:00,36.5,34.9,30.44,NNW,335,10.0,15.0,94,0.00,,---,0.72,0.00,VWS V14.01,2013-11-23 04:01:00,
2013-11-22 22:03:00,36.5,34.9,30.44,North,352,12.0,15.0,94,0.00,,---,0.72,0.00,VWS V14.01,2013-11-23 04:03:00,
2013-11-22 22:05:00,36.5,34.7,30.44,NNW,330,7.0,15.0,93,0.00,,---,0.72,0.00,VWS V14.01,2013-11-23 04:05:00,
2013-11-22 22:07:00,36.5,34.9,30.44,North,9,9.0,15.0,94,0.00,,---,0.72,0.00,VWS V14.01,2013-11-23 04:07:00,
2013-11-22 22:10:00,36.5,34.9,30.44,NNW,339,6.0,15.0,94,0.00,,---,0.72,0.00,VWS V14.01,2013-11-23 04:10:00,
2013-11-22 22:12:00,36.6,35.0,30.44,NNW,327,10.0,15.0,94,0.00,,---,0.72,0.00,VWS V14.01,2013-11-23 04:12:00,
2013-11-22 22:13:00,36.6,35.0,30.44,North,357,9.0,15.0,94,0.00,,---,0.72,0.00,VWS V14.01,2013-11-23 04:13:00,
2013-11-22 22:14:00,36.6,35.0,30.44,NW,316,6.0,15.0,94,0.00,,---,0.72,0.00,VWS V14.01,2013-11-23 04:14:00,
2013-11-22 22:15:00,36.6,35.0,30.44,NNW,347,6.0,15.0,94,0.00,,---,0.72,0.00,VWS V14.01,2013-11-23 04:15:00,
2013-11-22 22:17:00,36.6,35.0,30.44,NNW,339,10.0,15.0,94,0.00,,---,0.72,0.00,VWS V14.01,2013-11-23 04:17:00,
2013-11-22 22:18:00,36.6,35.0,30.44,North,2,10.0,15.0,94,0.00,,---,0.72,0.00,VWS V14.01,2013-11-23 04:18:00,
2013-11-22 22:19:00,36.6,35.0,30.44,NW,318,6.0,15.0,94,0.00,,---,0.72,0.00,VWS V14.01,2013-11-23 04:19:00,
2013-11-22 22:21:00,36.6,35.0,30.44,NNW,334,5.0,15.0,94,0.00,,---,0.72,0.00,VWS V14.01,2013-11-23 04:21:00,
2013-11-22 22:24:00,36.6,35.0,30.44,North,351,5.0,15.0,94,0.00,,---,0.72,0.00,VWS V14.01,2013-11-23 04:24:00,
2013-11-22 22:25:00,36.6,35.0,30.44,NNW,333,11.0,15.0,94,0.00,,---,0.72,0.00,VWS V14.01,2013-11-23 04:25:00,
2013-11-22 22:26:00,36.6,34.8,30.44,NNW,334,10.0,15.0,93,0.00,,---,0.72,0.00,VWS V14.01,2013-11-23 04:26:00,
2013-11-22 22:30:00,36.7,34.9,30.44,North,3,8.0,15.0,93,0.00,,---,0.72,0.00,VWS V14.01,2013-11-23 04:30:00,
2013-11-22 22:31:00,36.7,35.1,30.43,NW,324,9.0,15.0,94,0.00,,---,0.72,0.00,VWS V14.01,2013-11-23 04:31:00,
2013-11-22 22:32:00,36.7,34.9,30.43,NW,305,6.0,12.0,93,0.00,,---,0.72,0.00,VWS V14.01,2013-11-23 04:32:00,
2013-11-22 22:33:00,36.7,34.9,30.43,North,351,8.0,14.0,93,0.00,,---,0.72,0.00,VWS V14.01,2013-11-23 04:33:00,
2013-11-22 22:35:00,36.7,34.9,30.44,NNW,337,8.0,14.0,93,0.00,,---,0.72,0.00,VWS V14.01,2013-11-23 04:35:00,
2013-11-22 22:36:00,36.7,35.1,30.43,NNW,330,8.0,14.0,94,0.00,,---,0.72,0.00,VWS V14.01,2013-11-23 04:36:00,
2013-11-22 22:38:00,36.7,34.9,30.44,North,351,9.0,14.0,93,0.00,,---,0.72,0.00,VWS V14.01,2013-11-23 04:38:00,
2013-11-22 22:40:00,36.7,34.9,30.44,North,353,6.0,14.0,93,0.00,,---,0.72,0.00,VWS V14.01,2013-11-23 04:40:00,
2013-11-22 22:41:00,36.7,34.9,30.44,North,358,9.0,14.0,93,0.00,,---,0.72,0.00,VWS V14.01,2013-11-23 04:41:00,
2013-11-22 22:42:00,36.7,34.9,30.44,NNW,329,7.0,14.0,93,0.00,,---,0.72,0.00,VWS V14.01,2013-11-23 04:42:00,
2013-11-22 22:44:00,36.8,35.0,30.44,NW,320,6.0,14.0,93,0.00,,---,0.72,0.00,VWS V14.01,2013-11-23 04:44:00,
2013-11-22 22:45:00,36.8,35.0,30.44,NW,305,3.0,14.0,93,0.00,,---,0.72,0.00,VWS V14.01,2013-11-23 04:45:00,
2013-11-22 22:46:00,36.8,35.0,30.44,NNW,337,8.0,14.0,93,0.00,,---,0.72,0.00,VWS V14.01,2013-11-23 04:46:00,
2013-11-22 22:48:00,36.8,35.0,30.44,NNW,344,5.0,14.0,93,0.00,,---,0.72,0.00,VWS V14.01,2013-11-23 04:48:00,
2013-11-22 22:50:00,36.9,35.1,30.44,NW,311,7.0,14.0,93,0.00,,---,0.72,0.00,VWS V14.01,2013-11-23 04:50:00,
2013-11-22 22:51:00,36.9,35.1,30.44,North,352,9.0,14.0,93,0.00,,---,0.72,0.00,VWS V14.01,2013-11-23 04:51:00,
2013-11-22 22:52:00,36.8,35.0,30.44,NW,326,12.0,13.0,93,0.00,,,0.72,0,weatherlink.com 1.10,2013-11-23 04:52:00,
2013-11-22 22:55:00,36.9,35.1,30.44,NNW,339,5.0,14.0,93,0.00,,---,0.72,0.00,VWS V14.01,2013-11-23 04:55:00,
2013-11-22 22:57:00,36.9,35.1,30.44,NNW,330,11.0,14.0,93,0.00,,---,0.72,0.00,VWS V14.01,2013-11-23 04:57:00,
2013-11-22 22:58:00,36.9,35.1,30.44,North,352,7.0,17.0,93,0.00,,---,0.72,0.00,VWS V14.01,2013-11-23 04:58:00,
2013-11-22 23:01:00,36.9,35.1,30.44,NW,312,6.0,17.0,93,0.00,,---,0.72,0.00,VWS V14.01,2013-11-23 05:01:00,
2013-11-22 23:02:00,37.0,35.2,30.44,NNW,341,7.0,9.0,93,0.00,,---,0.72,0.00,VWS V14.01,2013-11-23 05:02:00,
2013-11-22 23:04:00,37.0,35.2,30.44,NNW,342,4.0,10.0,93,0.00,,---,0.72,0.00,VWS V14.01,2013-11-23 05:04:00,
2013-11-22 23:05:00,37.0,35.2,30.45,North,349,3.0,10.0,93,0.00,,---,0.72,0.00,VWS V14.01,2013-11-23 05:05:00,
2013-11-22 23:06:00,37.0,35.2,30.44,NW,320,8.0,10.0,93,0.00,,---,0.72,0.00,VWS V14.01,2013-11-23 05:06:00,
2013-11-22 23:07:00,37.0,35.2,30.44,North,351,6.0,10.0,93,0.00,,---,0.72,0.00,VWS V14.01,2013-11-23 05:07:00,
2013-11-22 23:08:00,37.0,35.2,30.44,NNW,337,10.0,10.0,93,0.00,,---,0.72,0.00,VWS V14.01,2013-11-23 05:08:00,
2013-11-22 23:10:00,37.0,35.2,30.44,NW,324,3.0,10.0,93,0.00,,---,0.72,0.00,VWS V14.01,2013-11-23 05:10:00,
2013-11-22 23:11:00,37.0,35.2,30.44,North,4,8.0,11.0,93,0.00,,---,0.72,0.00,VWS V14.01,2013-11-23 05:11:00,
2013-11-22 23:12:00,37.1,35.3,30.44,NNW,336,4.0,11.0,93,0.00,,---,0.72,0.00,VWS V14.01,2013-11-23 05:12:00,
2013-11-22 23:15:00,37.1,35.3,30.44,NNW,341,7.0,14.0,93,0.00,,---,0.72,0.00,VWS V14.01,2013-11-23 05:15:00,
2013-11-22 23:17:00,37.1,35.3,30.44,NNW,341,5.0,14.0,93,0.00,,---,0.72,0.00,VWS V14.01,2013-11-23 05:17:00,
2013-11-22 23:18:00,37.1,35.3,30.44,North,353,5.0,14.0,93,0.00,,---,0.72,0.00,VWS V14.01,2013-11-23 05:18:00,
2013-11-22 23:19:00,37.2,35.4,30.44,NNE,14,7.0,14.0,93,0.00,,---,0.72,0.00,VWS V14.01,2013-11-23 05:19:00,
2013-11-22 23:20:00,37.2,35.4,30.44,NNW,333,7.0,14.0,93,0.00,,---,0.72,0.00,VWS V14.01,2013-11-23 05:20:00,
2013-11-22 23:22:00,37.1,35.3,30.44,North,7,4.0,14.0,93,0.00,,---,0.72,0.00,VWS V14.01,2013-11-23 05:22:00,
2013-11-22 23:23:00,37.2,35.4,30.44,North,360,10.0,14.0,93,0.00,,---,0.72,0.00,VWS V14.01,2013-11-23 05:23:00,
2013-11-22 23:26:00,37.2,35.4,30.43,NW,317,8.0,14.0,93,0.00,,---,0.72,0.00,VWS V14.01,2013-11-23 05:26:00,
2013-11-22 23:28:00,37.2,35.4,30.43,North,349,10.0,14.0,93,0.00,,---,0.72,0.00,VWS V14.01,2013-11-23 05:28:00,
2013-11-22 23:29:00,37.2,35.4,30.44,NNW,343,5.0,14.0,93,0.00,,---,0.72,0.00,VWS V14.01,2013-11-23 05:29:00,
2013-11-22 23:30:00,37.2,35.4,30.44,NNW,339,11.0,14.0,93,0.00,,---,0.72,0.00,VWS V14.01,2013-11-23 05:30:00,
2013-11-22 23:31:00,37.3,35.5,30.44,North,353,6.0,14.0,93,0.00,,---,0.72,0.00,VWS V14.01,2013-11-23 05:31:00,
2013-11-22 23:32:00,37.2,35.4,30.44,North,349,8.0,11.0,93,0.00,,---,0.72,0.00,VWS V14.01,2013-11-23 05:32:00,
2013-11-22 23:33:00,37.2,35.4,30.43,NNW,346,8.0,13.0,93,0.00,,---,0.72,0.00,VWS V14.01,2013-11-23 05:33:00,
2013-11-22 23:34:00,37.2,35.4,30.43,North,349,7.0,13.0,93,0.00,,---,0.72,0.00,VWS V14.01,2013-11-23 05:34:00,
2013-11-22 23:35:00,37.2,35.4,30.43,NNW,347,8.0,13.0,93,0.00,,---,0.72,0.00,VWS V14.01,2013-11-23 05:35:00,
2013-11-22 23:36:00,37.2,35.4,30.43,NNW,345,7.0,13.0,93,0.00,,---,0.72,0.00,VWS V14.01,2013-11-23 05:36:00,
2013-11-22 23:38:00,37.2,35.4,30.43,NW,323,7.0,13.0,93,0.00,,---,0.72,0.00,VWS V14.01,2013-11-23 05:38:00,
2013-11-22 23:40:00,37.2,35.4,30.43,NW,326,12.0,13.0,93,0.00,,---,0.72,0.00,VWS V14.01,2013-11-23 05:40:00,
2013-11-22 23:42:00,37.2,35.4,30.43,WNW,302,6.0,16.0,93,0.00,,---,0.72,0.00,VWS V14.01,2013-11-23 05:42:00,
2013-11-22 23:43:00,37.2,35.4,30.43,WNW,295,5.0,16.0,93,0.00,,---,0.72,0.00,VWS V14.01,2013-11-23 05:43:00,
2013-11-22 23:46:00,37.2,35.4,30.43,North,6,9.0,16.0,93,0.00,,---,0.72,0.00,VWS V14.01,2013-11-23 05:46:00,
2013-11-22 23:48:00,37.3,35.5,30.43,NNW,339,6.0,16.0,93,0.00,,---,0.72,0.00,VWS V14.01,2013-11-23 05:48:00,
2013-11-22 23:49:00,37.2,35.4,30.43,NNW,347,4.0,18.0,93,0.00,,---,0.72,0.00,VWS V14.01,2013-11-23 05:49:00,
2013-11-22 23:50:00,37.3,35.5,30.43,NNW,335,7.0,18.0,93,0.00,,---,0.72,0.00,VWS V14.01,2013-11-23 05:50:00,
2013-11-22 23:52:00,37.3,35.5,30.43,NNW,328,8.0,18.0,93,0.00,,---,0.72,0.00,VWS V14.01,2013-11-23 05:52:00,
2013-11-22 23:53:00,37.3,35.5,30.43,North,351,13.0,18.0,93,0.00,,---,0.72,0.00,VWS V14.01,2013-11-23 05:53:00,
2013-11-22 23:55:00,37.2,35.4,30.43,NNW,345,7.0,18.0,93,0.00,,---,0.72,0.00,VWS V14.01,2013-11-23 05:55:00,
2013-11-22 23:57:00,37.3,35.5,30.43,NNW,332,6.0,18.0,93,0.00,,---,0.72,0.00,VWS V14.01,2013-11-23 05:57:00,
2013-11-22 23:59:00,37.3,35.5,30.43,NNW,332,7.0,18.0,93,0.00,,---,0.72,0.00,VWS V14.01,2013-11-23 05:59:00,